<?xml version="1.0" encoding="UTF-8" standalone="no" ?>
<gpx xmlns="http://www.topografix.com/GPX/1/1" xmlns:xsi="http://www.w3.org/2001/XMLSchema-instance" xsi:schemaLocation="http://www.topografix.com/GPX/1/1 http://www.topografix.com/GPX/1/1/gpx.xsd" version="1.1" creator="VisuGPX - https://www.visugpx.com">
  <metadata>
    <name>Les Cascades du Hérisson</name>
    <desc><![CDATA[Magnifique site pour cette randonnée. Se garer au parking de la fromagerie c'est gratuit.Par contre si possible choisir un jour hors vacances ou long WK car il y avait vraiment trop de monde avec enfants très petits et nombreux chiens !!!La température extérieur était un peu trop importante,prévoir de l'eau.Mais au retour près du parking magasin fabriquant de très beaux objets en bois,deux restaurants et un magasin de produits régionaux. ]]></desc>
  </metadata>
  <trk>
    <name><![CDATA[2019-06-01-01]]></name>
    <trkseg>
      <trkpt lat="46.61749" lon="5.88192">
        <ele>773.4</ele>
        <time>2019-06-01T08:45:54Z</time>
      </trkpt>
      <trkpt lat="46.61748" lon="5.88168">
        <ele>776.4</ele>
        <time>2019-06-01T08:45:55Z</time>
      </trkpt>
      <trkpt lat="46.61747" lon="5.88182">
        <ele>775.9</ele>
        <time>2019-06-01T08:47:22Z</time>
      </trkpt>
      <trkpt lat="46.61756" lon="5.88185">
        <ele>763.2</ele>
        <time>2019-06-01T08:47:25Z</time>
      </trkpt>
      <trkpt lat="46.61753" lon="5.8818">
        <ele>765.4</ele>
        <time>2019-06-01T08:47:37Z</time>
      </trkpt>
      <trkpt lat="46.61529" lon="5.88207">
        <ele>778.5</ele>
        <time>2019-06-01T09:00:35Z</time>
      </trkpt>
      <trkpt lat="46.61521" lon="5.88217">
        <ele>778.5</ele>
        <time>2019-06-01T09:00:48Z</time>
      </trkpt>
      <trkpt lat="46.61512" lon="5.88221">
        <ele>778.5</ele>
        <time>2019-06-01T09:01:01Z</time>
      </trkpt>
      <trkpt lat="46.61503" lon="5.88226">
        <ele>778.4</ele>
        <time>2019-06-01T09:01:12Z</time>
      </trkpt>
      <trkpt lat="46.61495" lon="5.88233">
        <ele>778.3</ele>
        <time>2019-06-01T09:01:24Z</time>
      </trkpt>
      <trkpt lat="46.61488" lon="5.88242">
        <ele>778.3</ele>
        <time>2019-06-01T09:01:27Z</time>
      </trkpt>
      <trkpt lat="46.6148" lon="5.88249">
        <ele>778.2</ele>
        <time>2019-06-01T09:01:34Z</time>
      </trkpt>
      <trkpt lat="46.6147" lon="5.88249">
        <ele>778.2</ele>
        <time>2019-06-01T09:01:43Z</time>
      </trkpt>
      <trkpt lat="46.61461" lon="5.88255">
        <ele>778.1</ele>
        <time>2019-06-01T09:01:57Z</time>
      </trkpt>
      <trkpt lat="46.61453" lon="5.88264">
        <ele>778</ele>
        <time>2019-06-01T09:02:06Z</time>
      </trkpt>
      <trkpt lat="46.61444" lon="5.88269">
        <ele>777.9</ele>
        <time>2019-06-01T09:02:13Z</time>
      </trkpt>
      <trkpt lat="46.61433" lon="5.8827">
        <ele>777.7</ele>
        <time>2019-06-01T09:02:25Z</time>
      </trkpt>
      <trkpt lat="46.61425" lon="5.88274">
        <ele>777.5</ele>
        <time>2019-06-01T09:02:38Z</time>
      </trkpt>
      <trkpt lat="46.61415" lon="5.88279">
        <ele>777.4</ele>
        <time>2019-06-01T09:02:47Z</time>
      </trkpt>
      <trkpt lat="46.61406" lon="5.88284">
        <ele>777.2</ele>
        <time>2019-06-01T09:02:57Z</time>
      </trkpt>
      <trkpt lat="46.61397" lon="5.88287">
        <ele>776.9</ele>
        <time>2019-06-01T09:03:07Z</time>
      </trkpt>
      <trkpt lat="46.61391" lon="5.88298">
        <ele>776.7</ele>
        <time>2019-06-01T09:03:17Z</time>
      </trkpt>
      <trkpt lat="46.61385" lon="5.88308">
        <ele>776.5</ele>
        <time>2019-06-01T09:03:25Z</time>
      </trkpt>
      <trkpt lat="46.61377" lon="5.88315">
        <ele>776.4</ele>
        <time>2019-06-01T09:03:34Z</time>
      </trkpt>
      <trkpt lat="46.61369" lon="5.88323">
        <ele>776.2</ele>
        <time>2019-06-01T09:03:43Z</time>
      </trkpt>
      <trkpt lat="46.61361" lon="5.88331">
        <ele>776</ele>
        <time>2019-06-01T09:03:55Z</time>
      </trkpt>
      <trkpt lat="46.61353" lon="5.88335">
        <ele>775.9</ele>
        <time>2019-06-01T09:04:05Z</time>
      </trkpt>
      <trkpt lat="46.61344" lon="5.88341">
        <ele>775.8</ele>
        <time>2019-06-01T09:04:12Z</time>
      </trkpt>
      <trkpt lat="46.61336" lon="5.88348">
        <ele>775.6</ele>
        <time>2019-06-01T09:04:20Z</time>
      </trkpt>
      <trkpt lat="46.61327" lon="5.88356">
        <ele>775.4</ele>
        <time>2019-06-01T09:04:27Z</time>
      </trkpt>
      <trkpt lat="46.61318" lon="5.88359">
        <ele>775.3</ele>
        <time>2019-06-01T09:04:33Z</time>
      </trkpt>
      <trkpt lat="46.61308" lon="5.88359">
        <ele>775</ele>
        <time>2019-06-01T09:04:44Z</time>
      </trkpt>
      <trkpt lat="46.61298" lon="5.88358">
        <ele>774.8</ele>
        <time>2019-06-01T09:04:53Z</time>
      </trkpt>
      <trkpt lat="46.61289" lon="5.8836">
        <ele>774.5</ele>
        <time>2019-06-01T09:05:07Z</time>
      </trkpt>
      <trkpt lat="46.61281" lon="5.88364">
        <ele>774.3</ele>
        <time>2019-06-01T09:05:15Z</time>
      </trkpt>
      <trkpt lat="46.61271" lon="5.88366">
        <ele>774</ele>
        <time>2019-06-01T09:05:25Z</time>
      </trkpt>
      <trkpt lat="46.61266" lon="5.88354">
        <ele>773.7</ele>
        <time>2019-06-01T09:05:34Z</time>
      </trkpt>
      <trkpt lat="46.61272" lon="5.88366">
        <ele>773.4</ele>
        <time>2019-06-01T09:06:07Z</time>
      </trkpt>
      <trkpt lat="46.61264" lon="5.88375">
        <ele>773</ele>
        <time>2019-06-01T09:06:21Z</time>
      </trkpt>
      <trkpt lat="46.61257" lon="5.88384">
        <ele>772.8</ele>
        <time>2019-06-01T09:06:26Z</time>
      </trkpt>
      <trkpt lat="46.61247" lon="5.88384">
        <ele>772.6</ele>
        <time>2019-06-01T09:06:34Z</time>
      </trkpt>
      <trkpt lat="46.61238" lon="5.88385">
        <ele>772.4</ele>
        <time>2019-06-01T09:06:41Z</time>
      </trkpt>
      <trkpt lat="46.61229" lon="5.88381">
        <ele>772.1</ele>
        <time>2019-06-01T09:06:49Z</time>
      </trkpt>
      <trkpt lat="46.61222" lon="5.8837">
        <ele>771.6</ele>
        <time>2019-06-01T09:07:09Z</time>
      </trkpt>
      <trkpt lat="46.61214" lon="5.88361">
        <ele>771.4</ele>
        <time>2019-06-01T09:07:16Z</time>
      </trkpt>
      <trkpt lat="46.61205" lon="5.88355">
        <ele>771.2</ele>
        <time>2019-06-01T09:07:24Z</time>
      </trkpt>
      <trkpt lat="46.61196" lon="5.8835">
        <ele>770.9</ele>
        <time>2019-06-01T09:07:31Z</time>
      </trkpt>
      <trkpt lat="46.61187" lon="5.88351">
        <ele>770.6</ele>
        <time>2019-06-01T09:07:48Z</time>
      </trkpt>
      <trkpt lat="46.61182" lon="5.88363">
        <ele>770.3</ele>
        <time>2019-06-01T09:08:01Z</time>
      </trkpt>
      <trkpt lat="46.61174" lon="5.8837">
        <ele>769.9</ele>
        <time>2019-06-01T09:08:18Z</time>
      </trkpt>
      <trkpt lat="46.61172" lon="5.88382">
        <ele>769.4</ele>
        <time>2019-06-01T09:08:33Z</time>
      </trkpt>
      <trkpt lat="46.61174" lon="5.88395">
        <ele>768.9</ele>
        <time>2019-06-01T09:08:50Z</time>
      </trkpt>
      <trkpt lat="46.61173" lon="5.88382">
        <ele>766.7</ele>
        <time>2019-06-01T09:11:20Z</time>
      </trkpt>
      <trkpt lat="46.61175" lon="5.88368">
        <ele>766.1</ele>
        <time>2019-06-01T09:11:32Z</time>
      </trkpt>
      <trkpt lat="46.61179" lon="5.88356">
        <ele>765.5</ele>
        <time>2019-06-01T09:11:50Z</time>
      </trkpt>
      <trkpt lat="46.61188" lon="5.88351">
        <ele>765.3</ele>
        <time>2019-06-01T09:11:55Z</time>
      </trkpt>
      <trkpt lat="46.61198" lon="5.8835">
        <ele>764.9</ele>
        <time>2019-06-01T09:12:05Z</time>
      </trkpt>
      <trkpt lat="46.61198" lon="5.88363">
        <ele>764.5</ele>
        <time>2019-06-01T09:12:15Z</time>
      </trkpt>
      <trkpt lat="46.61198" lon="5.88378">
        <ele>764.2</ele>
        <time>2019-06-01T09:12:25Z</time>
      </trkpt>
      <trkpt lat="46.61194" lon="5.8839">
        <ele>763.9</ele>
        <time>2019-06-01T09:12:42Z</time>
      </trkpt>
      <trkpt lat="46.61194" lon="5.88403">
        <ele>763.5</ele>
        <time>2019-06-01T09:13:08Z</time>
      </trkpt>
      <trkpt lat="46.612" lon="5.88413">
        <ele>762.7</ele>
        <time>2019-06-01T09:14:40Z</time>
      </trkpt>
      <trkpt lat="46.61191" lon="5.8841">
        <ele>761.7</ele>
        <time>2019-06-01T09:15:33Z</time>
      </trkpt>
      <trkpt lat="46.61193" lon="5.88396">
        <ele>761.4</ele>
        <time>2019-06-01T09:16:07Z</time>
      </trkpt>
      <trkpt lat="46.61191" lon="5.88382">
        <ele>761.1</ele>
        <time>2019-06-01T09:16:28Z</time>
      </trkpt>
      <trkpt lat="46.61187" lon="5.8837">
        <ele>761</ele>
        <time>2019-06-01T09:16:33Z</time>
      </trkpt>
      <trkpt lat="46.61188" lon="5.88357">
        <ele>760.8</ele>
        <time>2019-06-01T09:16:49Z</time>
      </trkpt>
      <trkpt lat="46.61181" lon="5.88347">
        <ele>760.3</ele>
        <time>2019-06-01T09:17:19Z</time>
      </trkpt>
      <trkpt lat="46.61173" lon="5.88339">
        <ele>760</ele>
        <time>2019-06-01T09:17:32Z</time>
      </trkpt>
      <trkpt lat="46.61165" lon="5.88332">
        <ele>759.5</ele>
        <time>2019-06-01T09:17:54Z</time>
      </trkpt>
      <trkpt lat="46.61158" lon="5.88323">
        <ele>759.3</ele>
        <time>2019-06-01T09:18:09Z</time>
      </trkpt>
      <trkpt lat="46.61159" lon="5.8831">
        <ele>759.2</ele>
        <time>2019-06-01T09:18:15Z</time>
      </trkpt>
      <trkpt lat="46.61166" lon="5.88301">
        <ele>759</ele>
        <time>2019-06-01T09:18:25Z</time>
      </trkpt>
      <trkpt lat="46.61165" lon="5.88287">
        <ele>758.8</ele>
        <time>2019-06-01T09:18:34Z</time>
      </trkpt>
      <trkpt lat="46.61166" lon="5.88273">
        <ele>758.7</ele>
        <time>2019-06-01T09:18:42Z</time>
      </trkpt>
      <trkpt lat="46.61163" lon="5.8826">
        <ele>758.4</ele>
        <time>2019-06-01T09:18:56Z</time>
      </trkpt>
      <trkpt lat="46.61158" lon="5.88249">
        <ele>758.3</ele>
        <time>2019-06-01T09:19:08Z</time>
      </trkpt>
      <trkpt lat="46.61152" lon="5.88238">
        <ele>758.2</ele>
        <time>2019-06-01T09:19:20Z</time>
      </trkpt>
      <trkpt lat="46.61147" lon="5.88226">
        <ele>758.2</ele>
        <time>2019-06-01T09:19:32Z</time>
      </trkpt>
      <trkpt lat="46.61137" lon="5.88222">
        <ele>758.1</ele>
        <time>2019-06-01T09:19:42Z</time>
      </trkpt>
      <trkpt lat="46.61129" lon="5.88215">
        <ele>758</ele>
        <time>2019-06-01T09:19:47Z</time>
      </trkpt>
      <trkpt lat="46.61122" lon="5.88208">
        <ele>757.9</ele>
        <time>2019-06-01T09:19:56Z</time>
      </trkpt>
      <trkpt lat="46.61113" lon="5.88202">
        <ele>757.8</ele>
        <time>2019-06-01T09:20:07Z</time>
      </trkpt>
      <trkpt lat="46.61105" lon="5.88194">
        <ele>757.7</ele>
        <time>2019-06-01T09:20:17Z</time>
      </trkpt>
      <trkpt lat="46.61098" lon="5.88184">
        <ele>757.6</ele>
        <time>2019-06-01T09:20:27Z</time>
      </trkpt>
      <trkpt lat="46.61095" lon="5.88171">
        <ele>757.5</ele>
        <time>2019-06-01T09:20:34Z</time>
      </trkpt>
      <trkpt lat="46.6109" lon="5.88159">
        <ele>757.4</ele>
        <time>2019-06-01T09:20:43Z</time>
      </trkpt>
      <trkpt lat="46.61086" lon="5.88148">
        <ele>757.2</ele>
        <time>2019-06-01T09:20:55Z</time>
      </trkpt>
      <trkpt lat="46.6108" lon="5.88137">
        <ele>757</ele>
        <time>2019-06-01T09:21:04Z</time>
      </trkpt>
      <trkpt lat="46.61075" lon="5.88126">
        <ele>756.9</ele>
        <time>2019-06-01T09:21:11Z</time>
      </trkpt>
      <trkpt lat="46.61066" lon="5.88123">
        <ele>756.3</ele>
        <time>2019-06-01T09:21:45Z</time>
      </trkpt>
      <trkpt lat="46.61059" lon="5.88113">
        <ele>756</ele>
        <time>2019-06-01T09:22:08Z</time>
      </trkpt>
      <trkpt lat="46.61068" lon="5.88118">
        <ele>755.5</ele>
        <time>2019-06-01T09:23:08Z</time>
      </trkpt>
      <trkpt lat="46.61075" lon="5.88108">
        <ele>755.1</ele>
        <time>2019-06-01T09:23:18Z</time>
      </trkpt>
      <trkpt lat="46.61077" lon="5.88095">
        <ele>753.7</ele>
        <time>2019-06-01T09:24:26Z</time>
      </trkpt>
      <trkpt lat="46.61084" lon="5.88104">
        <ele>753</ele>
        <time>2019-06-01T09:24:44Z</time>
      </trkpt>
      <trkpt lat="46.6108" lon="5.88116">
        <ele>752.6</ele>
        <time>2019-06-01T09:25:06Z</time>
      </trkpt>
      <trkpt lat="46.6108" lon="5.881">
        <ele>751.8</ele>
        <time>2019-06-01T09:25:51Z</time>
      </trkpt>
      <trkpt lat="46.61085" lon="5.88089">
        <ele>751.6</ele>
        <time>2019-06-01T09:25:57Z</time>
      </trkpt>
      <trkpt lat="46.61091" lon="5.88078">
        <ele>751.4</ele>
        <time>2019-06-01T09:26:04Z</time>
      </trkpt>
      <trkpt lat="46.61098" lon="5.88071">
        <ele>751.2</ele>
        <time>2019-06-01T09:26:22Z</time>
      </trkpt>
      <trkpt lat="46.61104" lon="5.88058">
        <ele>751</ele>
        <time>2019-06-01T09:26:29Z</time>
      </trkpt>
      <trkpt lat="46.6111" lon="5.88047">
        <ele>750.9</ele>
        <time>2019-06-01T09:26:35Z</time>
      </trkpt>
      <trkpt lat="46.61116" lon="5.88034">
        <ele>750.7</ele>
        <time>2019-06-01T09:26:48Z</time>
      </trkpt>
      <trkpt lat="46.61121" lon="5.88022">
        <ele>750.7</ele>
        <time>2019-06-01T09:26:54Z</time>
      </trkpt>
      <trkpt lat="46.61128" lon="5.88012">
        <ele>750.6</ele>
        <time>2019-06-01T09:27:01Z</time>
      </trkpt>
      <trkpt lat="46.61132" lon="5.87999">
        <ele>750.5</ele>
        <time>2019-06-01T09:27:10Z</time>
      </trkpt>
      <trkpt lat="46.61136" lon="5.87986">
        <ele>750.4</ele>
        <time>2019-06-01T09:27:20Z</time>
      </trkpt>
      <trkpt lat="46.61141" lon="5.87975">
        <ele>750.3</ele>
        <time>2019-06-01T09:27:43Z</time>
      </trkpt>
      <trkpt lat="46.61143" lon="5.8796">
        <ele>750.2</ele>
        <time>2019-06-01T09:27:49Z</time>
      </trkpt>
      <trkpt lat="46.61145" lon="5.87946">
        <ele>750.2</ele>
        <time>2019-06-01T09:27:57Z</time>
      </trkpt>
      <trkpt lat="46.61149" lon="5.87933">
        <ele>750.1</ele>
        <time>2019-06-01T09:28:08Z</time>
      </trkpt>
      <trkpt lat="46.61156" lon="5.87924">
        <ele>750</ele>
        <time>2019-06-01T09:28:18Z</time>
      </trkpt>
      <trkpt lat="46.61164" lon="5.87916">
        <ele>749.9</ele>
        <time>2019-06-01T09:28:26Z</time>
      </trkpt>
      <trkpt lat="46.61172" lon="5.87914">
        <ele>749.8</ele>
        <time>2019-06-01T09:28:45Z</time>
      </trkpt>
      <trkpt lat="46.61182" lon="5.87913">
        <ele>749.7</ele>
        <time>2019-06-01T09:29:05Z</time>
      </trkpt>
      <trkpt lat="46.61187" lon="5.87902">
        <ele>749.5</ele>
        <time>2019-06-01T09:29:21Z</time>
      </trkpt>
      <trkpt lat="46.6119" lon="5.87889">
        <ele>749.3</ele>
        <time>2019-06-01T09:29:33Z</time>
      </trkpt>
      <trkpt lat="46.61192" lon="5.87876">
        <ele>748.8</ele>
        <time>2019-06-01T09:29:56Z</time>
      </trkpt>
      <trkpt lat="46.61192" lon="5.87861">
        <ele>748.5</ele>
        <time>2019-06-01T09:30:11Z</time>
      </trkpt>
      <trkpt lat="46.612" lon="5.87851">
        <ele>748.2</ele>
        <time>2019-06-01T09:30:27Z</time>
      </trkpt>
      <trkpt lat="46.61205" lon="5.87839">
        <ele>747.9</ele>
        <time>2019-06-01T09:30:42Z</time>
      </trkpt>
      <trkpt lat="46.61213" lon="5.87831">
        <ele>747.7</ele>
        <time>2019-06-01T09:30:56Z</time>
      </trkpt>
      <trkpt lat="46.61216" lon="5.87818">
        <ele>747.5</ele>
        <time>2019-06-01T09:31:02Z</time>
      </trkpt>
      <trkpt lat="46.61222" lon="5.87807">
        <ele>747.4</ele>
        <time>2019-06-01T09:31:11Z</time>
      </trkpt>
      <trkpt lat="46.61224" lon="5.87793">
        <ele>747.2</ele>
        <time>2019-06-01T09:31:23Z</time>
      </trkpt>
      <trkpt lat="46.61226" lon="5.8778">
        <ele>747</ele>
        <time>2019-06-01T09:31:37Z</time>
      </trkpt>
      <trkpt lat="46.61227" lon="5.87766">
        <ele>746.8</ele>
        <time>2019-06-01T09:31:45Z</time>
      </trkpt>
      <trkpt lat="46.61233" lon="5.87755">
        <ele>746.7</ele>
        <time>2019-06-01T09:32:01Z</time>
      </trkpt>
      <trkpt lat="46.61238" lon="5.87742">
        <ele>746.6</ele>
        <time>2019-06-01T09:32:09Z</time>
      </trkpt>
      <trkpt lat="46.61244" lon="5.87733">
        <ele>746.5</ele>
        <time>2019-06-01T09:32:19Z</time>
      </trkpt>
      <trkpt lat="46.61249" lon="5.8772">
        <ele>746.4</ele>
        <time>2019-06-01T09:32:30Z</time>
      </trkpt>
      <trkpt lat="46.61254" lon="5.87707">
        <ele>746.4</ele>
        <time>2019-06-01T09:32:40Z</time>
      </trkpt>
      <trkpt lat="46.6126" lon="5.87698">
        <ele>746.2</ele>
        <time>2019-06-01T09:32:57Z</time>
      </trkpt>
      <trkpt lat="46.6126" lon="5.87684">
        <ele>746.2</ele>
        <time>2019-06-01T09:33:02Z</time>
      </trkpt>
      <trkpt lat="46.61262" lon="5.87671">
        <ele>746</ele>
        <time>2019-06-01T09:33:18Z</time>
      </trkpt>
      <trkpt lat="46.61264" lon="5.87657">
        <ele>745.8</ele>
        <time>2019-06-01T09:33:28Z</time>
      </trkpt>
      <trkpt lat="46.61266" lon="5.87643">
        <ele>745.6</ele>
        <time>2019-06-01T09:33:39Z</time>
      </trkpt>
      <trkpt lat="46.61267" lon="5.87629">
        <ele>745.5</ele>
        <time>2019-06-01T09:33:47Z</time>
      </trkpt>
      <trkpt lat="46.61268" lon="5.87616">
        <ele>745.3</ele>
        <time>2019-06-01T09:33:58Z</time>
      </trkpt>
      <trkpt lat="46.61272" lon="5.87601">
        <ele>745.2</ele>
        <time>2019-06-01T09:34:06Z</time>
      </trkpt>
      <trkpt lat="46.61277" lon="5.87589">
        <ele>745</ele>
        <time>2019-06-01T09:34:18Z</time>
      </trkpt>
      <trkpt lat="46.61279" lon="5.87575">
        <ele>744.7</ele>
        <time>2019-06-01T09:34:35Z</time>
      </trkpt>
      <trkpt lat="46.61284" lon="5.87563">
        <ele>744.5</ele>
        <time>2019-06-01T09:34:45Z</time>
      </trkpt>
      <trkpt lat="46.61292" lon="5.87553">
        <ele>744.2</ele>
        <time>2019-06-01T09:34:57Z</time>
      </trkpt>
      <trkpt lat="46.61298" lon="5.87542">
        <ele>744</ele>
        <time>2019-06-01T09:35:09Z</time>
      </trkpt>
      <trkpt lat="46.61301" lon="5.87529">
        <ele>743.8</ele>
        <time>2019-06-01T09:35:18Z</time>
      </trkpt>
      <trkpt lat="46.61308" lon="5.8752">
        <ele>743.6</ele>
        <time>2019-06-01T09:35:28Z</time>
      </trkpt>
      <trkpt lat="46.61315" lon="5.8751">
        <ele>743.5</ele>
        <time>2019-06-01T09:35:36Z</time>
      </trkpt>
      <trkpt lat="46.61322" lon="5.87501">
        <ele>743.3</ele>
        <time>2019-06-01T09:35:44Z</time>
      </trkpt>
      <trkpt lat="46.61328" lon="5.8751">
        <ele>743.2</ele>
        <time>2019-06-01T09:35:52Z</time>
      </trkpt>
      <trkpt lat="46.6132" lon="5.87502">
        <ele>743</ele>
        <time>2019-06-01T09:36:37Z</time>
      </trkpt>
      <trkpt lat="46.61322" lon="5.87486">
        <ele>742.5</ele>
        <time>2019-06-01T09:36:57Z</time>
      </trkpt>
      <trkpt lat="46.61328" lon="5.87476">
        <ele>742.3</ele>
        <time>2019-06-01T09:37:02Z</time>
      </trkpt>
      <trkpt lat="46.61338" lon="5.87471">
        <ele>742</ele>
        <time>2019-06-01T09:37:11Z</time>
      </trkpt>
      <trkpt lat="46.61345" lon="5.87463">
        <ele>741.5</ele>
        <time>2019-06-01T09:37:35Z</time>
      </trkpt>
      <trkpt lat="46.61353" lon="5.87456">
        <ele>741.2</ele>
        <time>2019-06-01T09:37:46Z</time>
      </trkpt>
      <trkpt lat="46.61359" lon="5.87441">
        <ele>740.7</ele>
        <time>2019-06-01T09:38:02Z</time>
      </trkpt>
      <trkpt lat="46.6136" lon="5.87426">
        <ele>740.5</ele>
        <time>2019-06-01T09:38:14Z</time>
      </trkpt>
      <trkpt lat="46.61365" lon="5.87414">
        <ele>740.3</ele>
        <time>2019-06-01T09:38:28Z</time>
      </trkpt>
      <trkpt lat="46.61372" lon="5.87406">
        <ele>740</ele>
        <time>2019-06-01T09:38:56Z</time>
      </trkpt>
      <trkpt lat="46.61377" lon="5.87393">
        <ele>739.7</ele>
        <time>2019-06-01T09:39:07Z</time>
      </trkpt>
      <trkpt lat="46.61374" lon="5.8738">
        <ele>739.5</ele>
        <time>2019-06-01T09:39:15Z</time>
      </trkpt>
      <trkpt lat="46.61368" lon="5.87369">
        <ele>739.2</ele>
        <time>2019-06-01T09:39:26Z</time>
      </trkpt>
      <trkpt lat="46.6136" lon="5.87361">
        <ele>739</ele>
        <time>2019-06-01T09:39:34Z</time>
      </trkpt>
      <trkpt lat="46.61354" lon="5.8735">
        <ele>738.6</ele>
        <time>2019-06-01T09:39:48Z</time>
      </trkpt>
      <trkpt lat="46.61349" lon="5.87338">
        <ele>738.3</ele>
        <time>2019-06-01T09:39:59Z</time>
      </trkpt>
      <trkpt lat="46.61347" lon="5.87326">
        <ele>738</ele>
        <time>2019-06-01T09:40:08Z</time>
      </trkpt>
      <trkpt lat="46.61342" lon="5.87313">
        <ele>737.8</ele>
        <time>2019-06-01T09:40:15Z</time>
      </trkpt>
      <trkpt lat="46.61342" lon="5.873">
        <ele>737.6</ele>
        <time>2019-06-01T09:40:25Z</time>
      </trkpt>
      <trkpt lat="46.61341" lon="5.87286">
        <ele>737.1</ele>
        <time>2019-06-01T09:40:53Z</time>
      </trkpt>
      <trkpt lat="46.6134" lon="5.87273">
        <ele>736.7</ele>
        <time>2019-06-01T09:41:04Z</time>
      </trkpt>
      <trkpt lat="46.61337" lon="5.8726">
        <ele>736.4</ele>
        <time>2019-06-01T09:41:14Z</time>
      </trkpt>
      <trkpt lat="46.61332" lon="5.87248">
        <ele>736</ele>
        <time>2019-06-01T09:41:25Z</time>
      </trkpt>
      <trkpt lat="46.61327" lon="5.87237">
        <ele>735.7</ele>
        <time>2019-06-01T09:41:37Z</time>
      </trkpt>
      <trkpt lat="46.61325" lon="5.87224">
        <ele>735.3</ele>
        <time>2019-06-01T09:41:49Z</time>
      </trkpt>
      <trkpt lat="46.61326" lon="5.8721">
        <ele>735.1</ele>
        <time>2019-06-01T09:42:01Z</time>
      </trkpt>
      <trkpt lat="46.61327" lon="5.87197">
        <ele>734.9</ele>
        <time>2019-06-01T09:42:07Z</time>
      </trkpt>
      <trkpt lat="46.61327" lon="5.87184">
        <ele>734.7</ele>
        <time>2019-06-01T09:42:16Z</time>
      </trkpt>
      <trkpt lat="46.61328" lon="5.8717">
        <ele>734.4</ele>
        <time>2019-06-01T09:42:24Z</time>
      </trkpt>
      <trkpt lat="46.6133" lon="5.87157">
        <ele>734.2</ele>
        <time>2019-06-01T09:42:37Z</time>
      </trkpt>
      <trkpt lat="46.61331" lon="5.87138">
        <ele>734</ele>
        <time>2019-06-01T09:42:50Z</time>
      </trkpt>
      <trkpt lat="46.6133" lon="5.87125">
        <ele>733.8</ele>
        <time>2019-06-01T09:43:03Z</time>
      </trkpt>
      <trkpt lat="46.61331" lon="5.87111">
        <ele>733.7</ele>
        <time>2019-06-01T09:43:10Z</time>
      </trkpt>
      <trkpt lat="46.61332" lon="5.87097">
        <ele>733.7</ele>
        <time>2019-06-01T09:43:20Z</time>
      </trkpt>
      <trkpt lat="46.61332" lon="5.87083">
        <ele>733.6</ele>
        <time>2019-06-01T09:43:30Z</time>
      </trkpt>
      <trkpt lat="46.61332" lon="5.8707">
        <ele>733.5</ele>
        <time>2019-06-01T09:43:39Z</time>
      </trkpt>
      <trkpt lat="46.61336" lon="5.87056">
        <ele>733.4</ele>
        <time>2019-06-01T09:43:47Z</time>
      </trkpt>
      <trkpt lat="46.61335" lon="5.87043">
        <ele>733.3</ele>
        <time>2019-06-01T09:43:55Z</time>
      </trkpt>
      <trkpt lat="46.61334" lon="5.8703">
        <ele>733.1</ele>
        <time>2019-06-01T09:44:05Z</time>
      </trkpt>
      <trkpt lat="46.61337" lon="5.87016">
        <ele>733</ele>
        <time>2019-06-01T09:44:15Z</time>
      </trkpt>
      <trkpt lat="46.6134" lon="5.87002">
        <ele>732.8</ele>
        <time>2019-06-01T09:44:29Z</time>
      </trkpt>
      <trkpt lat="46.61339" lon="5.86988">
        <ele>732.6</ele>
        <time>2019-06-01T09:44:49Z</time>
      </trkpt>
      <trkpt lat="46.61341" lon="5.86974">
        <ele>732.5</ele>
        <time>2019-06-01T09:44:54Z</time>
      </trkpt>
      <trkpt lat="46.61344" lon="5.86961">
        <ele>732.4</ele>
        <time>2019-06-01T09:45:02Z</time>
      </trkpt>
      <trkpt lat="46.61348" lon="5.86947">
        <ele>732.3</ele>
        <time>2019-06-01T09:45:13Z</time>
      </trkpt>
      <trkpt lat="46.6135" lon="5.86934">
        <ele>732.2</ele>
        <time>2019-06-01T09:45:21Z</time>
      </trkpt>
      <trkpt lat="46.61354" lon="5.86922">
        <ele>732.1</ele>
        <time>2019-06-01T09:45:35Z</time>
      </trkpt>
      <trkpt lat="46.61361" lon="5.86914">
        <ele>732</ele>
        <time>2019-06-01T09:45:45Z</time>
      </trkpt>
      <trkpt lat="46.6137" lon="5.86907">
        <ele>731.9</ele>
        <time>2019-06-01T09:45:58Z</time>
      </trkpt>
      <trkpt lat="46.61377" lon="5.86898">
        <ele>731.8</ele>
        <time>2019-06-01T09:46:07Z</time>
      </trkpt>
      <trkpt lat="46.61383" lon="5.86886">
        <ele>731.7</ele>
        <time>2019-06-01T09:46:16Z</time>
      </trkpt>
      <trkpt lat="46.61389" lon="5.86876">
        <ele>731.6</ele>
        <time>2019-06-01T09:46:26Z</time>
      </trkpt>
      <trkpt lat="46.61393" lon="5.86864">
        <ele>731.5</ele>
        <time>2019-06-01T09:46:38Z</time>
      </trkpt>
      <trkpt lat="46.61402" lon="5.86858">
        <ele>731.2</ele>
        <time>2019-06-01T09:47:02Z</time>
      </trkpt>
      <trkpt lat="46.61405" lon="5.86845">
        <ele>731</ele>
        <time>2019-06-01T09:47:19Z</time>
      </trkpt>
      <trkpt lat="46.61413" lon="5.86839">
        <ele>730.4</ele>
        <time>2019-06-01T09:47:59Z</time>
      </trkpt>
      <trkpt lat="46.61419" lon="5.86849">
        <ele>730.1</ele>
        <time>2019-06-01T09:48:21Z</time>
      </trkpt>
      <trkpt lat="46.61423" lon="5.86861">
        <ele>729.8</ele>
        <time>2019-06-01T09:48:50Z</time>
      </trkpt>
      <trkpt lat="46.61433" lon="5.86864">
        <ele>728.7</ele>
        <time>2019-06-01T09:49:46Z</time>
      </trkpt>
      <trkpt lat="46.61428" lon="5.86852">
        <ele>728.2</ele>
        <time>2019-06-01T09:50:11Z</time>
      </trkpt>
      <trkpt lat="46.61425" lon="5.86839">
        <ele>727.5</ele>
        <time>2019-06-01T09:50:42Z</time>
      </trkpt>
      <trkpt lat="46.61429" lon="5.86827">
        <ele>727.2</ele>
        <time>2019-06-01T09:50:53Z</time>
      </trkpt>
      <trkpt lat="46.61428" lon="5.86813">
        <ele>726.3</ele>
        <time>2019-06-01T09:51:39Z</time>
      </trkpt>
      <trkpt lat="46.61435" lon="5.86803">
        <ele>726.1</ele>
        <time>2019-06-01T09:51:46Z</time>
      </trkpt>
      <trkpt lat="46.6144" lon="5.86792">
        <ele>725.7</ele>
        <time>2019-06-01T09:52:02Z</time>
      </trkpt>
      <trkpt lat="46.61438" lon="5.86778">
        <ele>725</ele>
        <time>2019-06-01T09:52:32Z</time>
      </trkpt>
      <trkpt lat="46.6144" lon="5.86765">
        <ele>724.7</ele>
        <time>2019-06-01T09:52:40Z</time>
      </trkpt>
      <trkpt lat="46.61443" lon="5.86751">
        <ele>724.4</ele>
        <time>2019-06-01T09:52:52Z</time>
      </trkpt>
      <trkpt lat="46.61444" lon="5.86738">
        <ele>723.8</ele>
        <time>2019-06-01T09:53:13Z</time>
      </trkpt>
      <trkpt lat="46.61447" lon="5.86725">
        <ele>723.6</ele>
        <time>2019-06-01T09:53:23Z</time>
      </trkpt>
      <trkpt lat="46.61451" lon="5.86713">
        <ele>723.4</ele>
        <time>2019-06-01T09:53:30Z</time>
      </trkpt>
      <trkpt lat="46.61457" lon="5.86702">
        <ele>723.2</ele>
        <time>2019-06-01T09:53:40Z</time>
      </trkpt>
      <trkpt lat="46.61462" lon="5.8669">
        <ele>722.8</ele>
        <time>2019-06-01T09:53:54Z</time>
      </trkpt>
      <trkpt lat="46.61466" lon="5.86679">
        <ele>722.5</ele>
        <time>2019-06-01T09:54:06Z</time>
      </trkpt>
      <trkpt lat="46.6147" lon="5.86667">
        <ele>722.2</ele>
        <time>2019-06-01T09:54:17Z</time>
      </trkpt>
      <trkpt lat="46.61479" lon="5.86662">
        <ele>722</ele>
        <time>2019-06-01T09:54:26Z</time>
      </trkpt>
      <trkpt lat="46.61487" lon="5.86655">
        <ele>721.7</ele>
        <time>2019-06-01T09:54:38Z</time>
      </trkpt>
      <trkpt lat="46.61495" lon="5.86648">
        <ele>721.3</ele>
        <time>2019-06-01T09:54:55Z</time>
      </trkpt>
      <trkpt lat="46.61502" lon="5.86639">
        <ele>721</ele>
        <time>2019-06-01T09:55:17Z</time>
      </trkpt>
      <trkpt lat="46.61512" lon="5.86635">
        <ele>720.2</ele>
        <time>2019-06-01T09:55:58Z</time>
      </trkpt>
      <trkpt lat="46.61521" lon="5.86639">
        <ele>719.9</ele>
        <time>2019-06-01T09:56:07Z</time>
      </trkpt>
      <trkpt lat="46.6153" lon="5.86641">
        <ele>719.3</ele>
        <time>2019-06-01T09:56:34Z</time>
      </trkpt>
      <trkpt lat="46.61525" lon="5.86652">
        <ele>718.7</ele>
        <time>2019-06-01T09:57:14Z</time>
      </trkpt>
      <trkpt lat="46.61516" lon="5.86647">
        <ele>717.7</ele>
        <time>2019-06-01T09:57:55Z</time>
      </trkpt>
      <trkpt lat="46.6151" lon="5.86636">
        <ele>716.8</ele>
        <time>2019-06-01T09:58:08Z</time>
      </trkpt>
      <trkpt lat="46.61501" lon="5.86633">
        <ele>714.4</ele>
        <time>2019-06-01T09:58:58Z</time>
      </trkpt>
      <trkpt lat="46.615" lon="5.86618">
        <ele>713.4</ele>
        <time>2019-06-01T09:59:18Z</time>
      </trkpt>
      <trkpt lat="46.61497" lon="5.86606">
        <ele>713</ele>
        <time>2019-06-01T09:59:28Z</time>
      </trkpt>
      <trkpt lat="46.61501" lon="5.86594">
        <ele>712.6</ele>
        <time>2019-06-01T09:59:37Z</time>
      </trkpt>
      <trkpt lat="46.61502" lon="5.86581">
        <ele>711.9</ele>
        <time>2019-06-01T09:59:58Z</time>
      </trkpt>
      <trkpt lat="46.61504" lon="5.86568">
        <ele>711.7</ele>
        <time>2019-06-01T10:00:06Z</time>
      </trkpt>
      <trkpt lat="46.61503" lon="5.86554">
        <ele>711.2</ele>
        <time>2019-06-01T10:00:29Z</time>
      </trkpt>
      <trkpt lat="46.61506" lon="5.86541">
        <ele>710.5</ele>
        <time>2019-06-01T10:01:04Z</time>
      </trkpt>
      <trkpt lat="46.61503" lon="5.86528">
        <ele>709.8</ele>
        <time>2019-06-01T10:01:30Z</time>
      </trkpt>
      <trkpt lat="46.61503" lon="5.86514">
        <ele>709.4</ele>
        <time>2019-06-01T10:01:47Z</time>
      </trkpt>
      <trkpt lat="46.61501" lon="5.865">
        <ele>709.1</ele>
        <time>2019-06-01T10:01:59Z</time>
      </trkpt>
      <trkpt lat="46.61496" lon="5.86489">
        <ele>708.6</ele>
        <time>2019-06-01T10:02:24Z</time>
      </trkpt>
      <trkpt lat="46.61503" lon="5.86478">
        <ele>708.5</ele>
        <time>2019-06-01T10:02:33Z</time>
      </trkpt>
      <trkpt lat="46.61512" lon="5.86472">
        <ele>708.4</ele>
        <time>2019-06-01T10:02:46Z</time>
      </trkpt>
      <trkpt lat="46.61509" lon="5.86457">
        <ele>708.2</ele>
        <time>2019-06-01T10:03:02Z</time>
      </trkpt>
      <trkpt lat="46.61507" lon="5.86444">
        <ele>708.1</ele>
        <time>2019-06-01T10:03:14Z</time>
      </trkpt>
      <trkpt lat="46.61512" lon="5.86433">
        <ele>707.9</ele>
        <time>2019-06-01T10:03:35Z</time>
      </trkpt>
      <trkpt lat="46.61519" lon="5.86425">
        <ele>707.7</ele>
        <time>2019-06-01T10:04:05Z</time>
      </trkpt>
      <trkpt lat="46.61519" lon="5.86408">
        <ele>707.6</ele>
        <time>2019-06-01T10:04:16Z</time>
      </trkpt>
      <trkpt lat="46.61514" lon="5.86396">
        <ele>707.4</ele>
        <time>2019-06-01T10:04:34Z</time>
      </trkpt>
      <trkpt lat="46.61514" lon="5.86383">
        <ele>707.3</ele>
        <time>2019-06-01T10:04:48Z</time>
      </trkpt>
      <trkpt lat="46.61519" lon="5.86371">
        <ele>707.2</ele>
        <time>2019-06-01T10:05:03Z</time>
      </trkpt>
      <trkpt lat="46.61526" lon="5.86358">
        <ele>707</ele>
        <time>2019-06-01T10:05:29Z</time>
      </trkpt>
      <trkpt lat="46.61538" lon="5.86365">
        <ele>707</ele>
        <time>2019-06-01T10:05:31Z</time>
      </trkpt>
      <trkpt lat="46.61529" lon="5.86362">
        <ele>706.8</ele>
        <time>2019-06-01T10:05:50Z</time>
      </trkpt>
      <trkpt lat="46.61533" lon="5.86349">
        <ele>706.7</ele>
        <time>2019-06-01T10:06:06Z</time>
      </trkpt>
      <trkpt lat="46.61536" lon="5.86336">
        <ele>706.5</ele>
        <time>2019-06-01T10:06:31Z</time>
      </trkpt>
      <trkpt lat="46.61541" lon="5.86323">
        <ele>706.4</ele>
        <time>2019-06-01T10:06:45Z</time>
      </trkpt>
      <trkpt lat="46.6154" lon="5.8631">
        <ele>706</ele>
        <time>2019-06-01T10:07:14Z</time>
      </trkpt>
      <trkpt lat="46.61537" lon="5.86297">
        <ele>705.9</ele>
        <time>2019-06-01T10:07:23Z</time>
      </trkpt>
      <trkpt lat="46.6153" lon="5.8629">
        <ele>705.5</ele>
        <time>2019-06-01T10:07:38Z</time>
      </trkpt>
      <trkpt lat="46.61523" lon="5.8628">
        <ele>705.1</ele>
        <time>2019-06-01T10:07:52Z</time>
      </trkpt>
      <trkpt lat="46.61535" lon="5.86286">
        <ele>704.6</ele>
        <time>2019-06-01T10:08:20Z</time>
      </trkpt>
      <trkpt lat="46.61528" lon="5.86274">
        <ele>704.2</ele>
        <time>2019-06-01T10:08:32Z</time>
      </trkpt>
      <trkpt lat="46.6152" lon="5.86267">
        <ele>703.9</ele>
        <time>2019-06-01T10:08:42Z</time>
      </trkpt>
      <trkpt lat="46.61511" lon="5.86264">
        <ele>703.5</ele>
        <time>2019-06-01T10:08:55Z</time>
      </trkpt>
      <trkpt lat="46.61507" lon="5.86252">
        <ele>703.2</ele>
        <time>2019-06-01T10:09:09Z</time>
      </trkpt>
      <trkpt lat="46.61502" lon="5.86241">
        <ele>702.9</ele>
        <time>2019-06-01T10:09:19Z</time>
      </trkpt>
      <trkpt lat="46.61497" lon="5.8623">
        <ele>702.3</ele>
        <time>2019-06-01T10:09:45Z</time>
      </trkpt>
      <trkpt lat="46.61493" lon="5.86218">
        <ele>701.8</ele>
        <time>2019-06-01T10:10:14Z</time>
      </trkpt>
      <trkpt lat="46.61489" lon="5.86205">
        <ele>701.5</ele>
        <time>2019-06-01T10:10:51Z</time>
      </trkpt>
      <trkpt lat="46.61488" lon="5.86192">
        <ele>701.3</ele>
        <time>2019-06-01T10:11:05Z</time>
      </trkpt>
      <trkpt lat="46.61492" lon="5.8618">
        <ele>701.1</ele>
        <time>2019-06-01T10:11:32Z</time>
      </trkpt>
      <trkpt lat="46.61488" lon="5.86167">
        <ele>700.9</ele>
        <time>2019-06-01T10:11:40Z</time>
      </trkpt>
      <trkpt lat="46.61485" lon="5.86154">
        <ele>700.8</ele>
        <time>2019-06-01T10:11:49Z</time>
      </trkpt>
      <trkpt lat="46.61483" lon="5.86141">
        <ele>700.6</ele>
        <time>2019-06-01T10:12:03Z</time>
      </trkpt>
      <trkpt lat="46.61483" lon="5.86127">
        <ele>700.2</ele>
        <time>2019-06-01T10:12:27Z</time>
      </trkpt>
      <trkpt lat="46.61479" lon="5.86114">
        <ele>699.6</ele>
        <time>2019-06-01T10:12:51Z</time>
      </trkpt>
      <trkpt lat="46.61475" lon="5.86102">
        <ele>699.2</ele>
        <time>2019-06-01T10:13:18Z</time>
      </trkpt>
      <trkpt lat="46.61477" lon="5.86088">
        <ele>698.8</ele>
        <time>2019-06-01T10:13:34Z</time>
      </trkpt>
      <trkpt lat="46.61479" lon="5.86075">
        <ele>698.6</ele>
        <time>2019-06-01T10:13:45Z</time>
      </trkpt>
      <trkpt lat="46.61469" lon="5.86072">
        <ele>696.1</ele>
        <time>2019-06-01T10:16:08Z</time>
      </trkpt>
      <trkpt lat="46.61464" lon="5.86061">
        <ele>695.8</ele>
        <time>2019-06-01T10:16:26Z</time>
      </trkpt>
      <trkpt lat="46.61463" lon="5.86047">
        <ele>695.2</ele>
        <time>2019-06-01T10:16:53Z</time>
      </trkpt>
      <trkpt lat="46.61454" lon="5.86047">
        <ele>694.8</ele>
        <time>2019-06-01T10:17:17Z</time>
      </trkpt>
      <trkpt lat="46.61445" lon="5.86041">
        <ele>694.7</ele>
        <time>2019-06-01T10:17:31Z</time>
      </trkpt>
      <trkpt lat="46.61436" lon="5.86036">
        <ele>694.6</ele>
        <time>2019-06-01T10:17:41Z</time>
      </trkpt>
      <trkpt lat="46.6143" lon="5.86026">
        <ele>694.6</ele>
        <time>2019-06-01T10:17:57Z</time>
      </trkpt>
      <trkpt lat="46.61424" lon="5.86015">
        <ele>694.4</ele>
        <time>2019-06-01T10:18:22Z</time>
      </trkpt>
      <trkpt lat="46.61418" lon="5.86005">
        <ele>694.2</ele>
        <time>2019-06-01T10:18:55Z</time>
      </trkpt>
      <trkpt lat="46.61417" lon="5.85991">
        <ele>694</ele>
        <time>2019-06-01T10:19:09Z</time>
      </trkpt>
      <trkpt lat="46.61417" lon="5.85977">
        <ele>693.9</ele>
        <time>2019-06-01T10:19:21Z</time>
      </trkpt>
      <trkpt lat="46.61414" lon="5.85963">
        <ele>693.8</ele>
        <time>2019-06-01T10:19:30Z</time>
      </trkpt>
      <trkpt lat="46.61408" lon="5.85953">
        <ele>693.4</ele>
        <time>2019-06-01T10:19:45Z</time>
      </trkpt>
      <trkpt lat="46.61403" lon="5.85942">
        <ele>693</ele>
        <time>2019-06-01T10:19:55Z</time>
      </trkpt>
      <trkpt lat="46.61399" lon="5.8593">
        <ele>692.5</ele>
        <time>2019-06-01T10:20:08Z</time>
      </trkpt>
      <trkpt lat="46.61394" lon="5.85918">
        <ele>691.8</ele>
        <time>2019-06-01T10:20:31Z</time>
      </trkpt>
      <trkpt lat="46.6139" lon="5.85906">
        <ele>691.3</ele>
        <time>2019-06-01T10:20:50Z</time>
      </trkpt>
      <trkpt lat="46.61383" lon="5.85896">
        <ele>691.1</ele>
        <time>2019-06-01T10:21:01Z</time>
      </trkpt>
      <trkpt lat="46.61378" lon="5.85885">
        <ele>690.9</ele>
        <time>2019-06-01T10:21:14Z</time>
      </trkpt>
      <trkpt lat="46.61373" lon="5.85873">
        <ele>690.6</ele>
        <time>2019-06-01T10:21:51Z</time>
      </trkpt>
      <trkpt lat="46.61382" lon="5.85876">
        <ele>690.4</ele>
        <time>2019-06-01T10:22:15Z</time>
      </trkpt>
      <trkpt lat="46.61389" lon="5.85885">
        <ele>690.2</ele>
        <time>2019-06-01T10:22:27Z</time>
      </trkpt>
      <trkpt lat="46.61382" lon="5.85875">
        <ele>689.7</ele>
        <time>2019-06-01T10:23:12Z</time>
      </trkpt>
      <trkpt lat="46.61379" lon="5.85863">
        <ele>689.5</ele>
        <time>2019-06-01T10:23:29Z</time>
      </trkpt>
      <trkpt lat="46.61377" lon="5.8585">
        <ele>689.4</ele>
        <time>2019-06-01T10:23:39Z</time>
      </trkpt>
      <trkpt lat="46.61375" lon="5.85836">
        <ele>689.3</ele>
        <time>2019-06-01T10:23:52Z</time>
      </trkpt>
      <trkpt lat="46.61375" lon="5.85822">
        <ele>689.1</ele>
        <time>2019-06-01T10:24:06Z</time>
      </trkpt>
      <trkpt lat="46.61379" lon="5.85809">
        <ele>688.8</ele>
        <time>2019-06-01T10:24:30Z</time>
      </trkpt>
      <trkpt lat="46.61382" lon="5.85797">
        <ele>688.7</ele>
        <time>2019-06-01T10:24:43Z</time>
      </trkpt>
      <trkpt lat="46.61383" lon="5.85783">
        <ele>688.4</ele>
        <time>2019-06-01T10:24:59Z</time>
      </trkpt>
      <trkpt lat="46.61384" lon="5.85769">
        <ele>688.2</ele>
        <time>2019-06-01T10:25:15Z</time>
      </trkpt>
      <trkpt lat="46.61387" lon="5.85756">
        <ele>687.8</ele>
        <time>2019-06-01T10:25:36Z</time>
      </trkpt>
      <trkpt lat="46.61392" lon="5.85744">
        <ele>687.5</ele>
        <time>2019-06-01T10:25:56Z</time>
      </trkpt>
      <trkpt lat="46.61394" lon="5.85731">
        <ele>687.1</ele>
        <time>2019-06-01T10:26:09Z</time>
      </trkpt>
      <trkpt lat="46.61399" lon="5.85719">
        <ele>686.8</ele>
        <time>2019-06-01T10:26:21Z</time>
      </trkpt>
      <trkpt lat="46.61398" lon="5.85704">
        <ele>686.5</ele>
        <time>2019-06-01T10:26:34Z</time>
      </trkpt>
      <trkpt lat="46.61407" lon="5.85698">
        <ele>686</ele>
        <time>2019-06-01T10:26:44Z</time>
      </trkpt>
      <trkpt lat="46.6141" lon="5.85685">
        <ele>684.9</ele>
        <time>2019-06-01T10:27:11Z</time>
      </trkpt>
      <trkpt lat="46.6141" lon="5.85672">
        <ele>684.3</ele>
        <time>2019-06-01T10:27:27Z</time>
      </trkpt>
      <trkpt lat="46.61409" lon="5.85658">
        <ele>683.8</ele>
        <time>2019-06-01T10:27:39Z</time>
      </trkpt>
      <trkpt lat="46.61413" lon="5.85647">
        <ele>683.2</ele>
        <time>2019-06-01T10:27:57Z</time>
      </trkpt>
      <trkpt lat="46.61407" lon="5.85636">
        <ele>680.9</ele>
        <time>2019-06-01T10:28:42Z</time>
      </trkpt>
      <trkpt lat="46.61405" lon="5.85623">
        <ele>679.9</ele>
        <time>2019-06-01T10:28:55Z</time>
      </trkpt>
      <trkpt lat="46.61407" lon="5.85609">
        <ele>678</ele>
        <time>2019-06-01T10:29:25Z</time>
      </trkpt>
      <trkpt lat="46.61406" lon="5.85595">
        <ele>677.1</ele>
        <time>2019-06-01T10:29:33Z</time>
      </trkpt>
      <trkpt lat="46.614" lon="5.85583">
        <ele>674.3</ele>
        <time>2019-06-01T10:29:54Z</time>
      </trkpt>
      <trkpt lat="46.61406" lon="5.85573">
        <ele>647.3</ele>
        <time>2019-06-01T10:37:01Z</time>
      </trkpt>
      <trkpt lat="46.61416" lon="5.85576">
        <ele>632.1</ele>
        <time>2019-06-01T10:44:26Z</time>
      </trkpt>
      <trkpt lat="46.61407" lon="5.85583">
        <ele>630.5</ele>
        <time>2019-06-01T10:45:56Z</time>
      </trkpt>
      <trkpt lat="46.61416" lon="5.85587">
        <ele>626.4</ele>
        <time>2019-06-01T10:49:00Z</time>
      </trkpt>
      <trkpt lat="46.61411" lon="5.85576">
        <ele>624.2</ele>
        <time>2019-06-01T10:50:21Z</time>
      </trkpt>
      <trkpt lat="46.61401" lon="5.85575">
        <ele>622.4</ele>
        <time>2019-06-01T10:52:37Z</time>
      </trkpt>
      <trkpt lat="46.61407" lon="5.85565">
        <ele>619.5</ele>
        <time>2019-06-01T10:55:10Z</time>
      </trkpt>
      <trkpt lat="46.61413" lon="5.85554">
        <ele>618.8</ele>
        <time>2019-06-01T10:56:01Z</time>
      </trkpt>
      <trkpt lat="46.61414" lon="5.85569">
        <ele>618.6</ele>
        <time>2019-06-01T10:56:34Z</time>
      </trkpt>
      <trkpt lat="46.6142" lon="5.8558">
        <ele>618.4</ele>
        <time>2019-06-01T10:56:48Z</time>
      </trkpt>
      <trkpt lat="46.6141" lon="5.8558">
        <ele>618.3</ele>
        <time>2019-06-01T10:57:14Z</time>
      </trkpt>
      <trkpt lat="46.614" lon="5.8558">
        <ele>618.2</ele>
        <time>2019-06-01T10:57:30Z</time>
      </trkpt>
      <trkpt lat="46.61402" lon="5.85567">
        <ele>617.9</ele>
        <time>2019-06-01T10:58:08Z</time>
      </trkpt>
      <trkpt lat="46.61411" lon="5.85573">
        <ele>617.4</ele>
        <time>2019-06-01T10:58:44Z</time>
      </trkpt>
      <trkpt lat="46.61418" lon="5.85582">
        <ele>617.3</ele>
        <time>2019-06-01T10:58:50Z</time>
      </trkpt>
      <trkpt lat="46.61414" lon="5.8557">
        <ele>616.8</ele>
        <time>2019-06-01T11:00:19Z</time>
      </trkpt>
      <trkpt lat="46.61406" lon="5.85564">
        <ele>617</ele>
        <time>2019-06-01T11:03:40Z</time>
      </trkpt>
      <trkpt lat="46.61397" lon="5.85569">
        <ele>617.2</ele>
        <time>2019-06-01T11:04:41Z</time>
      </trkpt>
      <trkpt lat="46.61388" lon="5.85575">
        <ele>617.3</ele>
        <time>2019-06-01T11:05:24Z</time>
      </trkpt>
      <trkpt lat="46.61398" lon="5.85573">
        <ele>617.5</ele>
        <time>2019-06-01T11:06:27Z</time>
      </trkpt>
      <trkpt lat="46.61407" lon="5.85575">
        <ele>617.7</ele>
        <time>2019-06-01T11:11:59Z</time>
      </trkpt>
      <trkpt lat="46.61399" lon="5.85589">
        <ele>617.8</ele>
        <time>2019-06-01T11:12:33Z</time>
      </trkpt>
      <trkpt lat="46.61398" lon="5.85575">
        <ele>617.8</ele>
        <time>2019-06-01T11:12:59Z</time>
      </trkpt>
      <trkpt lat="46.61398" lon="5.85561">
        <ele>617.7</ele>
        <time>2019-06-01T11:13:12Z</time>
      </trkpt>
      <trkpt lat="46.61401" lon="5.85549">
        <ele>617.6</ele>
        <time>2019-06-01T11:13:22Z</time>
      </trkpt>
      <trkpt lat="46.61401" lon="5.85535">
        <ele>617.4</ele>
        <time>2019-06-01T11:13:32Z</time>
      </trkpt>
      <trkpt lat="46.61397" lon="5.85522">
        <ele>617.2</ele>
        <time>2019-06-01T11:13:45Z</time>
      </trkpt>
      <trkpt lat="46.61388" lon="5.8552">
        <ele>616.9</ele>
        <time>2019-06-01T11:14:07Z</time>
      </trkpt>
      <trkpt lat="46.61396" lon="5.85512">
        <ele>616.1</ele>
        <time>2019-06-01T11:15:32Z</time>
      </trkpt>
      <trkpt lat="46.61402" lon="5.85523">
        <ele>615.9</ele>
        <time>2019-06-01T11:15:45Z</time>
      </trkpt>
      <trkpt lat="46.61409" lon="5.85531">
        <ele>615.6</ele>
        <time>2019-06-01T11:16:03Z</time>
      </trkpt>
      <trkpt lat="46.61419" lon="5.85531">
        <ele>615.5</ele>
        <time>2019-06-01T11:16:27Z</time>
      </trkpt>
      <trkpt lat="46.61426" lon="5.85519">
        <ele>615.3</ele>
        <time>2019-06-01T11:16:41Z</time>
      </trkpt>
      <trkpt lat="46.61434" lon="5.85512">
        <ele>615.1</ele>
        <time>2019-06-01T11:17:02Z</time>
      </trkpt>
      <trkpt lat="46.61434" lon="5.85499">
        <ele>615</ele>
        <time>2019-06-01T11:17:17Z</time>
      </trkpt>
      <trkpt lat="46.61435" lon="5.85485">
        <ele>614.9</ele>
        <time>2019-06-01T11:17:31Z</time>
      </trkpt>
      <trkpt lat="46.61435" lon="5.85472">
        <ele>614.9</ele>
        <time>2019-06-01T11:17:52Z</time>
      </trkpt>
      <trkpt lat="46.61435" lon="5.85459">
        <ele>614.6</ele>
        <time>2019-06-01T11:18:11Z</time>
      </trkpt>
      <trkpt lat="46.61435" lon="5.85446">
        <ele>613.9</ele>
        <time>2019-06-01T11:18:21Z</time>
      </trkpt>
      <trkpt lat="46.61442" lon="5.85435">
        <ele>612.8</ele>
        <time>2019-06-01T11:18:39Z</time>
      </trkpt>
      <trkpt lat="46.61443" lon="5.8542">
        <ele>611.3</ele>
        <time>2019-06-01T11:19:03Z</time>
      </trkpt>
      <trkpt lat="46.61448" lon="5.85407">
        <ele>610.6</ele>
        <time>2019-06-01T11:19:10Z</time>
      </trkpt>
      <trkpt lat="46.61451" lon="5.85393">
        <ele>609.7</ele>
        <time>2019-06-01T11:19:18Z</time>
      </trkpt>
      <trkpt lat="46.61449" lon="5.8538">
        <ele>607.8</ele>
        <time>2019-06-01T11:19:30Z</time>
      </trkpt>
      <trkpt lat="46.61457" lon="5.85392">
        <ele>604.4</ele>
        <time>2019-06-01T11:19:45Z</time>
      </trkpt>
      <trkpt lat="46.61452" lon="5.85404">
        <ele>600.3</ele>
        <time>2019-06-01T11:20:07Z</time>
      </trkpt>
      <trkpt lat="46.61444" lon="5.85411">
        <ele>598.8</ele>
        <time>2019-06-01T11:20:19Z</time>
      </trkpt>
      <trkpt lat="46.61437" lon="5.8542">
        <ele>597.1</ele>
        <time>2019-06-01T11:20:37Z</time>
      </trkpt>
      <trkpt lat="46.61433" lon="5.85432">
        <ele>595.8</ele>
        <time>2019-06-01T11:20:52Z</time>
      </trkpt>
      <trkpt lat="46.61424" lon="5.85437">
        <ele>595</ele>
        <time>2019-06-01T11:21:07Z</time>
      </trkpt>
      <trkpt lat="46.61415" lon="5.85439">
        <ele>594.7</ele>
        <time>2019-06-01T11:21:14Z</time>
      </trkpt>
      <trkpt lat="46.6141" lon="5.85452">
        <ele>594.4</ele>
        <time>2019-06-01T11:21:32Z</time>
      </trkpt>
      <trkpt lat="46.61413" lon="5.85465">
        <ele>594.1</ele>
        <time>2019-06-01T11:21:45Z</time>
      </trkpt>
      <trkpt lat="46.61403" lon="5.85463">
        <ele>591.3</ele>
        <time>2019-06-01T11:22:52Z</time>
      </trkpt>
      <trkpt lat="46.61399" lon="5.8545">
        <ele>590.6</ele>
        <time>2019-06-01T11:23:03Z</time>
      </trkpt>
      <trkpt lat="46.61394" lon="5.85439">
        <ele>589.6</ele>
        <time>2019-06-01T11:23:22Z</time>
      </trkpt>
      <trkpt lat="46.61399" lon="5.85451">
        <ele>588.6</ele>
        <time>2019-06-01T11:23:57Z</time>
      </trkpt>
      <trkpt lat="46.61408" lon="5.85456">
        <ele>586.5</ele>
        <time>2019-06-01T11:25:23Z</time>
      </trkpt>
      <trkpt lat="46.61399" lon="5.85459">
        <ele>582.2</ele>
        <time>2019-06-01T11:25:59Z</time>
      </trkpt>
      <trkpt lat="46.6139" lon="5.85454">
        <ele>577.9</ele>
        <time>2019-06-01T11:27:04Z</time>
      </trkpt>
      <trkpt lat="46.61388" lon="5.85441">
        <ele>576.5</ele>
        <time>2019-06-01T11:27:15Z</time>
      </trkpt>
      <trkpt lat="46.61387" lon="5.85426">
        <ele>573.3</ele>
        <time>2019-06-01T11:28:17Z</time>
      </trkpt>
      <trkpt lat="46.61393" lon="5.85437">
        <ele>571.5</ele>
        <time>2019-06-01T11:28:42Z</time>
      </trkpt>
      <trkpt lat="46.6139" lon="5.8545">
        <ele>560.9</ele>
        <time>2019-06-01T11:33:43Z</time>
      </trkpt>
      <trkpt lat="46.61398" lon="5.85455">
        <ele>558.1</ele>
        <time>2019-06-01T11:35:15Z</time>
      </trkpt>
      <trkpt lat="46.61403" lon="5.85466">
        <ele>557.3</ele>
        <time>2019-06-01T11:36:36Z</time>
      </trkpt>
      <trkpt lat="46.61403" lon="5.85453">
        <ele>557.8</ele>
        <time>2019-06-01T11:37:29Z</time>
      </trkpt>
      <trkpt lat="46.61401" lon="5.85439">
        <ele>558.3</ele>
        <time>2019-06-01T11:37:43Z</time>
      </trkpt>
      <trkpt lat="46.61405" lon="5.85427">
        <ele>558.8</ele>
        <time>2019-06-01T11:37:58Z</time>
      </trkpt>
      <trkpt lat="46.61412" lon="5.85417">
        <ele>559.4</ele>
        <time>2019-06-01T11:38:11Z</time>
      </trkpt>
      <trkpt lat="46.61421" lon="5.85411">
        <ele>560.1</ele>
        <time>2019-06-01T11:38:23Z</time>
      </trkpt>
      <trkpt lat="46.61428" lon="5.85402">
        <ele>562.3</ele>
        <time>2019-06-01T11:39:00Z</time>
      </trkpt>
      <trkpt lat="46.61435" lon="5.85394">
        <ele>563.3</ele>
        <time>2019-06-01T11:39:26Z</time>
      </trkpt>
      <trkpt lat="46.61442" lon="5.85385">
        <ele>564.7</ele>
        <time>2019-06-01T11:39:51Z</time>
      </trkpt>
      <trkpt lat="46.6145" lon="5.85379">
        <ele>565.7</ele>
        <time>2019-06-01T11:40:20Z</time>
      </trkpt>
      <trkpt lat="46.61458" lon="5.85386">
        <ele>566.7</ele>
        <time>2019-06-01T11:41:37Z</time>
      </trkpt>
      <trkpt lat="46.61457" lon="5.854">
        <ele>567.4</ele>
        <time>2019-06-01T11:41:51Z</time>
      </trkpt>
      <trkpt lat="46.61454" lon="5.85413">
        <ele>568.2</ele>
        <time>2019-06-01T11:42:03Z</time>
      </trkpt>
      <trkpt lat="46.6145" lon="5.85425">
        <ele>569.2</ele>
        <time>2019-06-01T11:42:16Z</time>
      </trkpt>
      <trkpt lat="46.61451" lon="5.85438">
        <ele>569.8</ele>
        <time>2019-06-01T11:42:26Z</time>
      </trkpt>
      <trkpt lat="46.61453" lon="5.85451">
        <ele>570.6</ele>
        <time>2019-06-01T11:42:39Z</time>
      </trkpt>
      <trkpt lat="46.61448" lon="5.85464">
        <ele>571.6</ele>
        <time>2019-06-01T11:42:55Z</time>
      </trkpt>
      <trkpt lat="46.61445" lon="5.85476">
        <ele>572.6</ele>
        <time>2019-06-01T11:43:08Z</time>
      </trkpt>
      <trkpt lat="46.61444" lon="5.85489">
        <ele>574.5</ele>
        <time>2019-06-01T11:43:27Z</time>
      </trkpt>
      <trkpt lat="46.61441" lon="5.85502">
        <ele>576.2</ele>
        <time>2019-06-01T11:43:39Z</time>
      </trkpt>
      <trkpt lat="46.61438" lon="5.85515">
        <ele>578.8</ele>
        <time>2019-06-01T11:43:55Z</time>
      </trkpt>
      <trkpt lat="46.61434" lon="5.85528">
        <ele>581.6</ele>
        <time>2019-06-01T11:44:12Z</time>
      </trkpt>
      <trkpt lat="46.61425" lon="5.85531">
        <ele>584.1</ele>
        <time>2019-06-01T11:44:25Z</time>
      </trkpt>
      <trkpt lat="46.61417" lon="5.85538">
        <ele>587.2</ele>
        <time>2019-06-01T11:44:42Z</time>
      </trkpt>
      <trkpt lat="46.61408" lon="5.85542">
        <ele>590.2</ele>
        <time>2019-06-01T11:45:04Z</time>
      </trkpt>
      <trkpt lat="46.614" lon="5.85548">
        <ele>591.3</ele>
        <time>2019-06-01T11:45:11Z</time>
      </trkpt>
      <trkpt lat="46.61405" lon="5.8556">
        <ele>598.4</ele>
        <time>2019-06-01T11:46:50Z</time>
      </trkpt>
      <trkpt lat="46.6141" lon="5.85571">
        <ele>599.6</ele>
        <time>2019-06-01T11:47:12Z</time>
      </trkpt>
      <trkpt lat="46.61408" lon="5.85584">
        <ele>600</ele>
        <time>2019-06-01T11:47:21Z</time>
      </trkpt>
      <trkpt lat="46.61405" lon="5.85597">
        <ele>600.5</ele>
        <time>2019-06-01T11:47:32Z</time>
      </trkpt>
      <trkpt lat="46.61401" lon="5.85608">
        <ele>601.3</ele>
        <time>2019-06-01T11:47:53Z</time>
      </trkpt>
      <trkpt lat="46.61403" lon="5.85622">
        <ele>602.1</ele>
        <time>2019-06-01T11:48:35Z</time>
      </trkpt>
      <trkpt lat="46.61402" lon="5.85635">
        <ele>602.5</ele>
        <time>2019-06-01T11:48:48Z</time>
      </trkpt>
      <trkpt lat="46.61405" lon="5.85647">
        <ele>602.9</ele>
        <time>2019-06-01T11:49:08Z</time>
      </trkpt>
      <trkpt lat="46.614" lon="5.85659">
        <ele>603.9</ele>
        <time>2019-06-01T11:49:42Z</time>
      </trkpt>
      <trkpt lat="46.614" lon="5.85674">
        <ele>604.7</ele>
        <time>2019-06-01T11:50:12Z</time>
      </trkpt>
      <trkpt lat="46.61399" lon="5.85687">
        <ele>605.1</ele>
        <time>2019-06-01T11:50:32Z</time>
      </trkpt>
      <trkpt lat="46.61391" lon="5.85695">
        <ele>605.4</ele>
        <time>2019-06-01T11:50:55Z</time>
      </trkpt>
      <trkpt lat="46.6139" lon="5.85708">
        <ele>605.8</ele>
        <time>2019-06-01T11:51:21Z</time>
      </trkpt>
      <trkpt lat="46.61395" lon="5.8572">
        <ele>606.5</ele>
        <time>2019-06-01T11:52:15Z</time>
      </trkpt>
      <trkpt lat="46.61393" lon="5.85733">
        <ele>607.3</ele>
        <time>2019-06-01T11:52:38Z</time>
      </trkpt>
      <trkpt lat="46.61385" lon="5.85741">
        <ele>608.1</ele>
        <time>2019-06-01T11:52:59Z</time>
      </trkpt>
      <trkpt lat="46.6138" lon="5.85752">
        <ele>608.6</ele>
        <time>2019-06-01T11:53:18Z</time>
      </trkpt>
      <trkpt lat="46.61383" lon="5.85765">
        <ele>608.9</ele>
        <time>2019-06-01T11:53:26Z</time>
      </trkpt>
      <trkpt lat="46.61373" lon="5.85767">
        <ele>610.2</ele>
        <time>2019-06-01T11:53:48Z</time>
      </trkpt>
      <trkpt lat="46.6138" lon="5.85778">
        <ele>612.1</ele>
        <time>2019-06-01T11:54:12Z</time>
      </trkpt>
      <trkpt lat="46.61384" lon="5.85791">
        <ele>614.4</ele>
        <time>2019-06-01T11:54:34Z</time>
      </trkpt>
      <trkpt lat="46.61385" lon="5.85804">
        <ele>616.6</ele>
        <time>2019-06-01T11:54:57Z</time>
      </trkpt>
      <trkpt lat="46.6138" lon="5.85817">
        <ele>618.2</ele>
        <time>2019-06-01T11:55:14Z</time>
      </trkpt>
      <trkpt lat="46.61377" lon="5.85829">
        <ele>620.2</ele>
        <time>2019-06-01T11:56:21Z</time>
      </trkpt>
      <trkpt lat="46.61376" lon="5.85842">
        <ele>622.7</ele>
        <time>2019-06-01T11:56:55Z</time>
      </trkpt>
      <trkpt lat="46.61372" lon="5.85855">
        <ele>625.5</ele>
        <time>2019-06-01T11:57:22Z</time>
      </trkpt>
      <trkpt lat="46.61379" lon="5.85866">
        <ele>627.9</ele>
        <time>2019-06-01T11:57:45Z</time>
      </trkpt>
      <trkpt lat="46.61383" lon="5.85879">
        <ele>630.4</ele>
        <time>2019-06-01T11:58:07Z</time>
      </trkpt>
      <trkpt lat="46.6138" lon="5.85894">
        <ele>635.5</ele>
        <time>2019-06-01T11:58:44Z</time>
      </trkpt>
      <trkpt lat="46.61387" lon="5.85902">
        <ele>640</ele>
        <time>2019-06-01T12:00:02Z</time>
      </trkpt>
      <trkpt lat="46.61391" lon="5.85915">
        <ele>641.4</ele>
        <time>2019-06-01T12:00:26Z</time>
      </trkpt>
      <trkpt lat="46.61399" lon="5.85923">
        <ele>641.1</ele>
        <time>2019-06-01T12:00:43Z</time>
      </trkpt>
      <trkpt lat="46.61408" lon="5.85927">
        <ele>641.1</ele>
        <time>2019-06-01T12:01:01Z</time>
      </trkpt>
      <trkpt lat="46.61397" lon="5.8593">
        <ele>640.9</ele>
        <time>2019-06-01T12:01:10Z</time>
      </trkpt>
      <trkpt lat="46.61405" lon="5.85935">
        <ele>638.8</ele>
        <time>2019-06-01T12:02:04Z</time>
      </trkpt>
      <trkpt lat="46.614" lon="5.85924">
        <ele>635.3</ele>
        <time>2019-06-01T12:02:24Z</time>
      </trkpt>
      <trkpt lat="46.61394" lon="5.85915">
        <ele>647.1</ele>
        <time>2019-06-01T12:04:19Z</time>
      </trkpt>
      <trkpt lat="46.61386" lon="5.85905">
        <ele>649.4</ele>
        <time>2019-06-01T12:04:38Z</time>
      </trkpt>
      <trkpt lat="46.6138" lon="5.85897">
        <ele>650.4</ele>
        <time>2019-06-01T12:04:52Z</time>
      </trkpt>
      <trkpt lat="46.61374" lon="5.85886">
        <ele>653.2</ele>
        <time>2019-06-01T12:05:21Z</time>
      </trkpt>
      <trkpt lat="46.61374" lon="5.85901">
        <ele>656</ele>
        <time>2019-06-01T12:05:58Z</time>
      </trkpt>
      <trkpt lat="46.6138" lon="5.85911">
        <ele>657.1</ele>
        <time>2019-06-01T12:06:12Z</time>
      </trkpt>
      <trkpt lat="46.61387" lon="5.85919">
        <ele>658.2</ele>
        <time>2019-06-01T12:06:29Z</time>
      </trkpt>
      <trkpt lat="46.61391" lon="5.85932">
        <ele>659.6</ele>
        <time>2019-06-01T12:06:49Z</time>
      </trkpt>
      <trkpt lat="46.61399" lon="5.85938">
        <ele>660.1</ele>
        <time>2019-06-01T12:06:58Z</time>
      </trkpt>
      <trkpt lat="46.61407" lon="5.85946">
        <ele>660.7</ele>
        <time>2019-06-01T12:07:08Z</time>
      </trkpt>
      <trkpt lat="46.61407" lon="5.85959">
        <ele>661</ele>
        <time>2019-06-01T12:07:18Z</time>
      </trkpt>
      <trkpt lat="46.6141" lon="5.85972">
        <ele>661.3</ele>
        <time>2019-06-01T12:07:30Z</time>
      </trkpt>
      <trkpt lat="46.61411" lon="5.85986">
        <ele>661.5</ele>
        <time>2019-06-01T12:07:49Z</time>
      </trkpt>
      <trkpt lat="46.61416" lon="5.85998">
        <ele>661.6</ele>
        <time>2019-06-01T12:08:01Z</time>
      </trkpt>
      <trkpt lat="46.61419" lon="5.86011">
        <ele>661.7</ele>
        <time>2019-06-01T12:08:26Z</time>
      </trkpt>
      <trkpt lat="46.61416" lon="5.85998">
        <ele>663.2</ele>
        <time>2019-06-01T12:11:06Z</time>
      </trkpt>
      <trkpt lat="46.61421" lon="5.86012">
        <ele>664.2</ele>
        <time>2019-06-01T12:12:05Z</time>
      </trkpt>
      <trkpt lat="46.61424" lon="5.86024">
        <ele>664.9</ele>
        <time>2019-06-01T12:12:18Z</time>
      </trkpt>
      <trkpt lat="46.61432" lon="5.8603">
        <ele>666.5</ele>
        <time>2019-06-01T12:12:39Z</time>
      </trkpt>
      <trkpt lat="46.61436" lon="5.86042">
        <ele>667.6</ele>
        <time>2019-06-01T12:12:51Z</time>
      </trkpt>
      <trkpt lat="46.61443" lon="5.86052">
        <ele>668.8</ele>
        <time>2019-06-01T12:13:08Z</time>
      </trkpt>
      <trkpt lat="46.61451" lon="5.86056">
        <ele>669.5</ele>
        <time>2019-06-01T12:13:24Z</time>
      </trkpt>
      <trkpt lat="46.6146" lon="5.86062">
        <ele>673.5</ele>
        <time>2019-06-01T12:15:34Z</time>
      </trkpt>
      <trkpt lat="46.61469" lon="5.86065">
        <ele>673.9</ele>
        <time>2019-06-01T12:15:50Z</time>
      </trkpt>
      <trkpt lat="46.61472" lon="5.86078">
        <ele>674.7</ele>
        <time>2019-06-01T12:16:18Z</time>
      </trkpt>
      <trkpt lat="46.6148" lon="5.86086">
        <ele>675</ele>
        <time>2019-06-01T12:16:28Z</time>
      </trkpt>
      <trkpt lat="46.6148" lon="5.86101">
        <ele>675.5</ele>
        <time>2019-06-01T12:16:43Z</time>
      </trkpt>
      <trkpt lat="46.61477" lon="5.86113">
        <ele>676.1</ele>
        <time>2019-06-01T12:16:58Z</time>
      </trkpt>
      <trkpt lat="46.61482" lon="5.86125">
        <ele>676.7</ele>
        <time>2019-06-01T12:17:20Z</time>
      </trkpt>
      <trkpt lat="46.61485" lon="5.86137">
        <ele>676.6</ele>
        <time>2019-06-01T12:17:32Z</time>
      </trkpt>
      <trkpt lat="46.61491" lon="5.86148">
        <ele>676.6</ele>
        <time>2019-06-01T12:17:44Z</time>
      </trkpt>
      <trkpt lat="46.61495" lon="5.86161">
        <ele>676.9</ele>
        <time>2019-06-01T12:17:55Z</time>
      </trkpt>
      <trkpt lat="46.61501" lon="5.86171">
        <ele>677.4</ele>
        <time>2019-06-01T12:18:04Z</time>
      </trkpt>
      <trkpt lat="46.61505" lon="5.86183">
        <ele>677.9</ele>
        <time>2019-06-01T12:18:14Z</time>
      </trkpt>
      <trkpt lat="46.61509" lon="5.86196">
        <ele>678.5</ele>
        <time>2019-06-01T12:18:26Z</time>
      </trkpt>
      <trkpt lat="46.61512" lon="5.86208">
        <ele>679.8</ele>
        <time>2019-06-01T12:19:18Z</time>
      </trkpt>
      <trkpt lat="46.61511" lon="5.86222">
        <ele>681</ele>
        <time>2019-06-01T12:19:38Z</time>
      </trkpt>
      <trkpt lat="46.61502" lon="5.86224">
        <ele>683.6</ele>
        <time>2019-06-01T12:20:10Z</time>
      </trkpt>
      <trkpt lat="46.61508" lon="5.86237">
        <ele>685.3</ele>
        <time>2019-06-01T12:20:39Z</time>
      </trkpt>
      <trkpt lat="46.61512" lon="5.86249">
        <ele>687.9</ele>
        <time>2019-06-01T12:21:12Z</time>
      </trkpt>
      <trkpt lat="46.61521" lon="5.86256">
        <ele>688.9</ele>
        <time>2019-06-01T12:21:26Z</time>
      </trkpt>
      <trkpt lat="46.61528" lon="5.86264">
        <ele>689.7</ele>
        <time>2019-06-01T12:21:37Z</time>
      </trkpt>
      <trkpt lat="46.61533" lon="5.86276">
        <ele>690.6</ele>
        <time>2019-06-01T12:22:02Z</time>
      </trkpt>
      <trkpt lat="46.61537" lon="5.86288">
        <ele>691</ele>
        <time>2019-06-01T12:22:25Z</time>
      </trkpt>
      <trkpt lat="46.61542" lon="5.863">
        <ele>691.1</ele>
        <time>2019-06-01T12:22:43Z</time>
      </trkpt>
      <trkpt lat="46.61549" lon="5.86309">
        <ele>691.3</ele>
        <time>2019-06-01T12:22:59Z</time>
      </trkpt>
      <trkpt lat="46.6155" lon="5.86322">
        <ele>691.4</ele>
        <time>2019-06-01T12:23:07Z</time>
      </trkpt>
      <trkpt lat="46.61549" lon="5.86336">
        <ele>691.5</ele>
        <time>2019-06-01T12:23:17Z</time>
      </trkpt>
      <trkpt lat="46.61543" lon="5.86347">
        <ele>691.8</ele>
        <time>2019-06-01T12:23:35Z</time>
      </trkpt>
      <trkpt lat="46.61536" lon="5.86356">
        <ele>692.1</ele>
        <time>2019-06-01T12:23:48Z</time>
      </trkpt>
      <trkpt lat="46.61528" lon="5.86363">
        <ele>692.7</ele>
        <time>2019-06-01T12:24:06Z</time>
      </trkpt>
      <trkpt lat="46.61526" lon="5.86377">
        <ele>692.9</ele>
        <time>2019-06-01T12:24:16Z</time>
      </trkpt>
      <trkpt lat="46.61517" lon="5.86383">
        <ele>693.4</ele>
        <time>2019-06-01T12:24:40Z</time>
      </trkpt>
      <trkpt lat="46.61513" lon="5.86395">
        <ele>694</ele>
        <time>2019-06-01T12:25:29Z</time>
      </trkpt>
      <trkpt lat="46.61514" lon="5.86409">
        <ele>694.1</ele>
        <time>2019-06-01T12:25:43Z</time>
      </trkpt>
      <trkpt lat="46.61516" lon="5.86422">
        <ele>694.3</ele>
        <time>2019-06-01T12:25:59Z</time>
      </trkpt>
      <trkpt lat="46.61515" lon="5.86436">
        <ele>694.6</ele>
        <time>2019-06-01T12:26:26Z</time>
      </trkpt>
      <trkpt lat="46.61508" lon="5.86445">
        <ele>694.8</ele>
        <time>2019-06-01T12:26:41Z</time>
      </trkpt>
      <trkpt lat="46.61509" lon="5.86459">
        <ele>694.8</ele>
        <time>2019-06-01T12:26:56Z</time>
      </trkpt>
      <trkpt lat="46.61504" lon="5.86472">
        <ele>694.8</ele>
        <time>2019-06-01T12:27:11Z</time>
      </trkpt>
      <trkpt lat="46.61497" lon="5.86481">
        <ele>694.8</ele>
        <time>2019-06-01T12:27:29Z</time>
      </trkpt>
      <trkpt lat="46.61501" lon="5.86494">
        <ele>694.9</ele>
        <time>2019-06-01T12:27:47Z</time>
      </trkpt>
      <trkpt lat="46.61503" lon="5.86506">
        <ele>695.1</ele>
        <time>2019-06-01T12:27:58Z</time>
      </trkpt>
      <trkpt lat="46.61503" lon="5.86521">
        <ele>695.3</ele>
        <time>2019-06-01T12:28:14Z</time>
      </trkpt>
      <trkpt lat="46.61504" lon="5.86534">
        <ele>695.4</ele>
        <time>2019-06-01T12:28:26Z</time>
      </trkpt>
      <trkpt lat="46.61508" lon="5.86547">
        <ele>695.6</ele>
        <time>2019-06-01T12:28:39Z</time>
      </trkpt>
      <trkpt lat="46.6151" lon="5.8656">
        <ele>695.9</ele>
        <time>2019-06-01T12:28:52Z</time>
      </trkpt>
      <trkpt lat="46.61508" lon="5.86574">
        <ele>696.2</ele>
        <time>2019-06-01T12:29:07Z</time>
      </trkpt>
      <trkpt lat="46.61503" lon="5.86585">
        <ele>696.3</ele>
        <time>2019-06-01T12:29:16Z</time>
      </trkpt>
      <trkpt lat="46.61503" lon="5.86599">
        <ele>696.5</ele>
        <time>2019-06-01T12:29:29Z</time>
      </trkpt>
      <trkpt lat="46.61504" lon="5.86613">
        <ele>696.9</ele>
        <time>2019-06-01T12:30:03Z</time>
      </trkpt>
      <trkpt lat="46.61511" lon="5.86623">
        <ele>697.1</ele>
        <time>2019-06-01T12:30:40Z</time>
      </trkpt>
      <trkpt lat="46.61507" lon="5.86636">
        <ele>697.2</ele>
        <time>2019-06-01T12:31:20Z</time>
      </trkpt>
      <trkpt lat="46.61503" lon="5.86648">
        <ele>697.7</ele>
        <time>2019-06-01T12:32:29Z</time>
      </trkpt>
      <trkpt lat="46.61496" lon="5.86655">
        <ele>698</ele>
        <time>2019-06-01T12:32:52Z</time>
      </trkpt>
      <trkpt lat="46.61489" lon="5.86665">
        <ele>698.1</ele>
        <time>2019-06-01T12:33:05Z</time>
      </trkpt>
      <trkpt lat="46.61479" lon="5.86666">
        <ele>698.1</ele>
        <time>2019-06-01T12:33:17Z</time>
      </trkpt>
      <trkpt lat="46.61472" lon="5.86674">
        <ele>698.2</ele>
        <time>2019-06-01T12:33:31Z</time>
      </trkpt>
      <trkpt lat="46.61464" lon="5.86682">
        <ele>698.2</ele>
        <time>2019-06-01T12:33:40Z</time>
      </trkpt>
      <trkpt lat="46.6146" lon="5.86694">
        <ele>698.4</ele>
        <time>2019-06-01T12:33:59Z</time>
      </trkpt>
      <trkpt lat="46.61456" lon="5.86707">
        <ele>698.4</ele>
        <time>2019-06-01T12:34:06Z</time>
      </trkpt>
      <trkpt lat="46.61449" lon="5.86717">
        <ele>698.4</ele>
        <time>2019-06-01T12:34:12Z</time>
      </trkpt>
      <trkpt lat="46.61451" lon="5.86731">
        <ele>698.6</ele>
        <time>2019-06-01T12:34:30Z</time>
      </trkpt>
      <trkpt lat="46.61449" lon="5.86744">
        <ele>698.7</ele>
        <time>2019-06-01T12:34:39Z</time>
      </trkpt>
      <trkpt lat="46.61444" lon="5.86756">
        <ele>698.9</ele>
        <time>2019-06-01T12:34:49Z</time>
      </trkpt>
      <trkpt lat="46.6144" lon="5.86767">
        <ele>699.1</ele>
        <time>2019-06-01T12:35:02Z</time>
      </trkpt>
      <trkpt lat="46.61434" lon="5.86778">
        <ele>699.2</ele>
        <time>2019-06-01T12:35:12Z</time>
      </trkpt>
      <trkpt lat="46.6143" lon="5.86791">
        <ele>699.5</ele>
        <time>2019-06-01T12:35:29Z</time>
      </trkpt>
      <trkpt lat="46.61423" lon="5.86799">
        <ele>699.8</ele>
        <time>2019-06-01T12:35:47Z</time>
      </trkpt>
      <trkpt lat="46.61416" lon="5.86809">
        <ele>700</ele>
        <time>2019-06-01T12:35:54Z</time>
      </trkpt>
      <trkpt lat="46.61413" lon="5.86824">
        <ele>700.2</ele>
        <time>2019-06-01T12:36:14Z</time>
      </trkpt>
      <trkpt lat="46.6141" lon="5.86838">
        <ele>700.6</ele>
        <time>2019-06-01T12:37:02Z</time>
      </trkpt>
      <trkpt lat="46.6141" lon="5.86851">
        <ele>700.8</ele>
        <time>2019-06-01T12:37:23Z</time>
      </trkpt>
      <trkpt lat="46.61405" lon="5.86863">
        <ele>701</ele>
        <time>2019-06-01T12:37:32Z</time>
      </trkpt>
      <trkpt lat="46.61399" lon="5.86873">
        <ele>701.1</ele>
        <time>2019-06-01T12:37:43Z</time>
      </trkpt>
      <trkpt lat="46.61392" lon="5.86883">
        <ele>701.4</ele>
        <time>2019-06-01T12:37:59Z</time>
      </trkpt>
      <trkpt lat="46.61385" lon="5.86892">
        <ele>701.5</ele>
        <time>2019-06-01T12:38:11Z</time>
      </trkpt>
      <trkpt lat="46.61379" lon="5.86903">
        <ele>701.7</ele>
        <time>2019-06-01T12:38:20Z</time>
      </trkpt>
      <trkpt lat="46.61371" lon="5.86913">
        <ele>702</ele>
        <time>2019-06-01T12:38:32Z</time>
      </trkpt>
      <trkpt lat="46.61365" lon="5.86923">
        <ele>702.2</ele>
        <time>2019-06-01T12:38:41Z</time>
      </trkpt>
      <trkpt lat="46.61357" lon="5.8693">
        <ele>702.5</ele>
        <time>2019-06-01T12:38:51Z</time>
      </trkpt>
      <trkpt lat="46.61354" lon="5.86944">
        <ele>703.1</ele>
        <time>2019-06-01T12:39:19Z</time>
      </trkpt>
      <trkpt lat="46.61354" lon="5.86957">
        <ele>703.4</ele>
        <time>2019-06-01T12:39:30Z</time>
      </trkpt>
      <trkpt lat="46.61353" lon="5.8697">
        <ele>703.9</ele>
        <time>2019-06-01T12:39:45Z</time>
      </trkpt>
      <trkpt lat="46.61352" lon="5.86983">
        <ele>704.3</ele>
        <time>2019-06-01T12:39:58Z</time>
      </trkpt>
      <trkpt lat="46.6135" lon="5.86997">
        <ele>704.6</ele>
        <time>2019-06-01T12:40:11Z</time>
      </trkpt>
      <trkpt lat="46.61343" lon="5.87006">
        <ele>704.9</ele>
        <time>2019-06-01T12:40:27Z</time>
      </trkpt>
      <trkpt lat="46.61339" lon="5.87018">
        <ele>705.1</ele>
        <time>2019-06-01T12:40:38Z</time>
      </trkpt>
      <trkpt lat="46.61342" lon="5.87031">
        <ele>705.3</ele>
        <time>2019-06-01T12:40:49Z</time>
      </trkpt>
      <trkpt lat="46.61342" lon="5.87045">
        <ele>705.7</ele>
        <time>2019-06-01T12:41:03Z</time>
      </trkpt>
      <trkpt lat="46.61343" lon="5.87058">
        <ele>706</ele>
        <time>2019-06-01T12:41:16Z</time>
      </trkpt>
      <trkpt lat="46.6134" lon="5.87071">
        <ele>706.3</ele>
        <time>2019-06-01T12:41:26Z</time>
      </trkpt>
      <trkpt lat="46.61342" lon="5.87083">
        <ele>706.5</ele>
        <time>2019-06-01T12:41:36Z</time>
      </trkpt>
      <trkpt lat="46.61339" lon="5.87097">
        <ele>706.6</ele>
        <time>2019-06-01T12:41:42Z</time>
      </trkpt>
      <trkpt lat="46.61337" lon="5.8711">
        <ele>706.8</ele>
        <time>2019-06-01T12:41:58Z</time>
      </trkpt>
      <trkpt lat="46.61337" lon="5.87124">
        <ele>707</ele>
        <time>2019-06-01T12:42:09Z</time>
      </trkpt>
      <trkpt lat="46.61334" lon="5.87138">
        <ele>707.1</ele>
        <time>2019-06-01T12:42:24Z</time>
      </trkpt>
      <trkpt lat="46.61335" lon="5.87152">
        <ele>707.2</ele>
        <time>2019-06-01T12:42:34Z</time>
      </trkpt>
      <trkpt lat="46.61337" lon="5.87165">
        <ele>707.2</ele>
        <time>2019-06-01T12:42:38Z</time>
      </trkpt>
      <trkpt lat="46.61335" lon="5.8718">
        <ele>707.3</ele>
        <time>2019-06-01T12:42:50Z</time>
      </trkpt>
      <trkpt lat="46.61334" lon="5.87194">
        <ele>707.4</ele>
        <time>2019-06-01T12:42:58Z</time>
      </trkpt>
      <trkpt lat="46.61333" lon="5.87211">
        <ele>707.6</ele>
        <time>2019-06-01T12:43:16Z</time>
      </trkpt>
      <trkpt lat="46.61334" lon="5.87225">
        <ele>707.8</ele>
        <time>2019-06-01T12:43:27Z</time>
      </trkpt>
      <trkpt lat="46.61337" lon="5.87238">
        <ele>708.1</ele>
        <time>2019-06-01T12:43:41Z</time>
      </trkpt>
      <trkpt lat="46.61339" lon="5.87251">
        <ele>708.2</ele>
        <time>2019-06-01T12:43:49Z</time>
      </trkpt>
      <trkpt lat="46.61338" lon="5.87264">
        <ele>708.5</ele>
        <time>2019-06-01T12:44:03Z</time>
      </trkpt>
      <trkpt lat="46.61336" lon="5.87277">
        <ele>708.6</ele>
        <time>2019-06-01T12:44:12Z</time>
      </trkpt>
      <trkpt lat="46.61334" lon="5.87291">
        <ele>708.7</ele>
        <time>2019-06-01T12:44:19Z</time>
      </trkpt>
      <trkpt lat="46.61334" lon="5.87306">
        <ele>709</ele>
        <time>2019-06-01T12:44:30Z</time>
      </trkpt>
      <trkpt lat="46.61338" lon="5.87318">
        <ele>709.2</ele>
        <time>2019-06-01T12:44:42Z</time>
      </trkpt>
      <trkpt lat="46.61341" lon="5.87331">
        <ele>709.3</ele>
        <time>2019-06-01T12:44:50Z</time>
      </trkpt>
      <trkpt lat="46.61345" lon="5.87344">
        <ele>709.5</ele>
        <time>2019-06-01T12:45:01Z</time>
      </trkpt>
      <trkpt lat="46.61349" lon="5.87357">
        <ele>709.8</ele>
        <time>2019-06-01T12:45:16Z</time>
      </trkpt>
      <trkpt lat="46.61357" lon="5.87366">
        <ele>710</ele>
        <time>2019-06-01T12:45:26Z</time>
      </trkpt>
      <trkpt lat="46.61369" lon="5.87374">
        <ele>710.1</ele>
        <time>2019-06-01T12:45:28Z</time>
      </trkpt>
      <trkpt lat="46.61375" lon="5.87384">
        <ele>710.6</ele>
        <time>2019-06-01T12:45:42Z</time>
      </trkpt>
      <trkpt lat="46.61375" lon="5.87397">
        <ele>711</ele>
        <time>2019-06-01T12:45:54Z</time>
      </trkpt>
      <trkpt lat="46.61372" lon="5.8741">
        <ele>711.5</ele>
        <time>2019-06-01T12:46:08Z</time>
      </trkpt>
      <trkpt lat="46.61366" lon="5.87423">
        <ele>711.8</ele>
        <time>2019-06-01T12:46:21Z</time>
      </trkpt>
      <trkpt lat="46.61375" lon="5.87418">
        <ele>711.9</ele>
        <time>2019-06-01T12:46:23Z</time>
      </trkpt>
      <trkpt lat="46.61366" lon="5.87433">
        <ele>712.2</ele>
        <time>2019-06-01T12:46:36Z</time>
      </trkpt>
      <trkpt lat="46.61359" lon="5.87443">
        <ele>712.4</ele>
        <time>2019-06-01T12:46:42Z</time>
      </trkpt>
      <trkpt lat="46.61354" lon="5.87455">
        <ele>712.7</ele>
        <time>2019-06-01T12:46:54Z</time>
      </trkpt>
      <trkpt lat="46.61349" lon="5.87467">
        <ele>712.9</ele>
        <time>2019-06-01T12:47:04Z</time>
      </trkpt>
      <trkpt lat="46.61344" lon="5.87477">
        <ele>713.1</ele>
        <time>2019-06-01T12:47:14Z</time>
      </trkpt>
      <trkpt lat="46.61336" lon="5.87485">
        <ele>713.4</ele>
        <time>2019-06-01T12:47:28Z</time>
      </trkpt>
      <trkpt lat="46.61329" lon="5.87493">
        <ele>713.5</ele>
        <time>2019-06-01T12:47:39Z</time>
      </trkpt>
      <trkpt lat="46.61321" lon="5.875">
        <ele>713.7</ele>
        <time>2019-06-01T12:47:51Z</time>
      </trkpt>
      <trkpt lat="46.61314" lon="5.87508">
        <ele>713.8</ele>
        <time>2019-06-01T12:48:05Z</time>
      </trkpt>
      <trkpt lat="46.61305" lon="5.87523">
        <ele>713.9</ele>
        <time>2019-06-01T12:48:11Z</time>
      </trkpt>
      <trkpt lat="46.61299" lon="5.87534">
        <ele>714.1</ele>
        <time>2019-06-01T12:48:20Z</time>
      </trkpt>
      <trkpt lat="46.61297" lon="5.87548">
        <ele>714.3</ele>
        <time>2019-06-01T12:48:30Z</time>
      </trkpt>
      <trkpt lat="46.6129" lon="5.87556">
        <ele>714.6</ele>
        <time>2019-06-01T12:48:44Z</time>
      </trkpt>
      <trkpt lat="46.61285" lon="5.87568">
        <ele>714.9</ele>
        <time>2019-06-01T12:48:56Z</time>
      </trkpt>
      <trkpt lat="46.61286" lon="5.87581">
        <ele>715.2</ele>
        <time>2019-06-01T12:49:09Z</time>
      </trkpt>
      <trkpt lat="46.6128" lon="5.87591">
        <ele>715.4</ele>
        <time>2019-06-01T12:49:17Z</time>
      </trkpt>
      <trkpt lat="46.61275" lon="5.87603">
        <ele>715.7</ele>
        <time>2019-06-01T12:49:35Z</time>
      </trkpt>
      <trkpt lat="46.61272" lon="5.87616">
        <ele>716</ele>
        <time>2019-06-01T12:49:47Z</time>
      </trkpt>
      <trkpt lat="46.61269" lon="5.87629">
        <ele>716.1</ele>
        <time>2019-06-01T12:49:55Z</time>
      </trkpt>
      <trkpt lat="46.61269" lon="5.87642">
        <ele>716.4</ele>
        <time>2019-06-01T12:50:06Z</time>
      </trkpt>
      <trkpt lat="46.61268" lon="5.87658">
        <ele>716.5</ele>
        <time>2019-06-01T12:50:13Z</time>
      </trkpt>
      <trkpt lat="46.61265" lon="5.87671">
        <ele>716.8</ele>
        <time>2019-06-01T12:50:25Z</time>
      </trkpt>
      <trkpt lat="46.61264" lon="5.87685">
        <ele>717.1</ele>
        <time>2019-06-01T12:50:35Z</time>
      </trkpt>
      <trkpt lat="46.6126" lon="5.87699">
        <ele>717.5</ele>
        <time>2019-06-01T12:50:47Z</time>
      </trkpt>
      <trkpt lat="46.61256" lon="5.87711">
        <ele>717.8</ele>
        <time>2019-06-01T12:50:56Z</time>
      </trkpt>
      <trkpt lat="46.61251" lon="5.87723">
        <ele>718.1</ele>
        <time>2019-06-01T12:51:05Z</time>
      </trkpt>
      <trkpt lat="46.61246" lon="5.87734">
        <ele>718.3</ele>
        <time>2019-06-01T12:51:14Z</time>
      </trkpt>
      <trkpt lat="46.61242" lon="5.87746">
        <ele>718.5</ele>
        <time>2019-06-01T12:51:21Z</time>
      </trkpt>
      <trkpt lat="46.61236" lon="5.87757">
        <ele>719</ele>
        <time>2019-06-01T12:51:33Z</time>
      </trkpt>
      <trkpt lat="46.61229" lon="5.87765">
        <ele>719.3</ele>
        <time>2019-06-01T12:51:42Z</time>
      </trkpt>
      <trkpt lat="46.61223" lon="5.87778">
        <ele>719.8</ele>
        <time>2019-06-01T12:51:54Z</time>
      </trkpt>
      <trkpt lat="46.61223" lon="5.87791">
        <ele>720.1</ele>
        <time>2019-06-01T12:52:03Z</time>
      </trkpt>
      <trkpt lat="46.61222" lon="5.87805">
        <ele>720.5</ele>
        <time>2019-06-01T12:52:14Z</time>
      </trkpt>
      <trkpt lat="46.61221" lon="5.87818">
        <ele>720.9</ele>
        <time>2019-06-01T12:52:27Z</time>
      </trkpt>
      <trkpt lat="46.61218" lon="5.87832">
        <ele>721.1</ele>
        <time>2019-06-01T12:52:37Z</time>
      </trkpt>
      <trkpt lat="46.61214" lon="5.87844">
        <ele>721.4</ele>
        <time>2019-06-01T12:52:47Z</time>
      </trkpt>
      <trkpt lat="46.61209" lon="5.87857">
        <ele>721.5</ele>
        <time>2019-06-01T12:52:53Z</time>
      </trkpt>
      <trkpt lat="46.61206" lon="5.8787">
        <ele>721.7</ele>
        <time>2019-06-01T12:53:09Z</time>
      </trkpt>
      <trkpt lat="46.61201" lon="5.87883">
        <ele>721.8</ele>
        <time>2019-06-01T12:53:16Z</time>
      </trkpt>
      <trkpt lat="46.61196" lon="5.87893">
        <ele>722</ele>
        <time>2019-06-01T12:53:30Z</time>
      </trkpt>
      <trkpt lat="46.61197" lon="5.87907">
        <ele>722.1</ele>
        <time>2019-06-01T12:53:43Z</time>
      </trkpt>
      <trkpt lat="46.6119" lon="5.87918">
        <ele>722.3</ele>
        <time>2019-06-01T12:53:52Z</time>
      </trkpt>
      <trkpt lat="46.61186" lon="5.8793">
        <ele>722.4</ele>
        <time>2019-06-01T12:54:03Z</time>
      </trkpt>
      <trkpt lat="46.61179" lon="5.8794">
        <ele>722.6</ele>
        <time>2019-06-01T12:54:15Z</time>
      </trkpt>
      <trkpt lat="46.61173" lon="5.87951">
        <ele>722.8</ele>
        <time>2019-06-01T12:54:25Z</time>
      </trkpt>
      <trkpt lat="46.61165" lon="5.87959">
        <ele>722.9</ele>
        <time>2019-06-01T12:54:36Z</time>
      </trkpt>
      <trkpt lat="46.61158" lon="5.87969">
        <ele>723.1</ele>
        <time>2019-06-01T12:54:46Z</time>
      </trkpt>
      <trkpt lat="46.61151" lon="5.87977">
        <ele>723.2</ele>
        <time>2019-06-01T12:54:54Z</time>
      </trkpt>
      <trkpt lat="46.61143" lon="5.87984">
        <ele>723.3</ele>
        <time>2019-06-01T12:55:03Z</time>
      </trkpt>
      <trkpt lat="46.61138" lon="5.87996">
        <ele>723.6</ele>
        <time>2019-06-01T12:55:19Z</time>
      </trkpt>
      <trkpt lat="46.61133" lon="5.88006">
        <ele>723.9</ele>
        <time>2019-06-01T12:55:31Z</time>
      </trkpt>
      <trkpt lat="46.61129" lon="5.88018">
        <ele>724</ele>
        <time>2019-06-01T12:55:39Z</time>
      </trkpt>
      <trkpt lat="46.61124" lon="5.88031">
        <ele>724.2</ele>
        <time>2019-06-01T12:55:50Z</time>
      </trkpt>
      <trkpt lat="46.61118" lon="5.88041">
        <ele>724.4</ele>
        <time>2019-06-01T12:55:59Z</time>
      </trkpt>
      <trkpt lat="46.61111" lon="5.8805">
        <ele>724.5</ele>
        <time>2019-06-01T12:56:08Z</time>
      </trkpt>
      <trkpt lat="46.61106" lon="5.88062">
        <ele>724.7</ele>
        <time>2019-06-01T12:56:18Z</time>
      </trkpt>
      <trkpt lat="46.61097" lon="5.88069">
        <ele>724.9</ele>
        <time>2019-06-01T12:56:27Z</time>
      </trkpt>
      <trkpt lat="46.61089" lon="5.88077">
        <ele>725.1</ele>
        <time>2019-06-01T12:56:36Z</time>
      </trkpt>
      <trkpt lat="46.61082" lon="5.88087">
        <ele>725.4</ele>
        <time>2019-06-01T12:56:50Z</time>
      </trkpt>
      <trkpt lat="46.61077" lon="5.88099">
        <ele>725.6</ele>
        <time>2019-06-01T12:57:00Z</time>
      </trkpt>
      <trkpt lat="46.61077" lon="5.88112">
        <ele>725.8</ele>
        <time>2019-06-01T12:57:11Z</time>
      </trkpt>
      <trkpt lat="46.61082" lon="5.88125">
        <ele>726</ele>
        <time>2019-06-01T12:57:21Z</time>
      </trkpt>
      <trkpt lat="46.61086" lon="5.88138">
        <ele>726.3</ele>
        <time>2019-06-01T12:57:33Z</time>
      </trkpt>
      <trkpt lat="46.61091" lon="5.88151">
        <ele>726.7</ele>
        <time>2019-06-01T12:57:46Z</time>
      </trkpt>
      <trkpt lat="46.61098" lon="5.8816">
        <ele>727</ele>
        <time>2019-06-01T12:57:55Z</time>
      </trkpt>
      <trkpt lat="46.61103" lon="5.88174">
        <ele>727.7</ele>
        <time>2019-06-01T12:58:16Z</time>
      </trkpt>
      <trkpt lat="46.61109" lon="5.88185">
        <ele>729.1</ele>
        <time>2019-06-01T12:59:43Z</time>
      </trkpt>
      <trkpt lat="46.61116" lon="5.88193">
        <ele>729.6</ele>
        <time>2019-06-01T12:59:52Z</time>
      </trkpt>
      <trkpt lat="46.61124" lon="5.88198">
        <ele>730.1</ele>
        <time>2019-06-01T13:00:04Z</time>
      </trkpt>
      <trkpt lat="46.61133" lon="5.88205">
        <ele>730.7</ele>
        <time>2019-06-01T13:00:17Z</time>
      </trkpt>
      <trkpt lat="46.61142" lon="5.88211">
        <ele>731</ele>
        <time>2019-06-01T13:00:27Z</time>
      </trkpt>
      <trkpt lat="46.61146" lon="5.88223">
        <ele>731.4</ele>
        <time>2019-06-01T13:00:39Z</time>
      </trkpt>
      <trkpt lat="46.61151" lon="5.88235">
        <ele>731.8</ele>
        <time>2019-06-01T13:00:49Z</time>
      </trkpt>
      <trkpt lat="46.61152" lon="5.88248">
        <ele>732.1</ele>
        <time>2019-06-01T13:00:57Z</time>
      </trkpt>
      <trkpt lat="46.61156" lon="5.88261">
        <ele>732.4</ele>
        <time>2019-06-01T13:01:08Z</time>
      </trkpt>
      <trkpt lat="46.61159" lon="5.88273">
        <ele>732.7</ele>
        <time>2019-06-01T13:01:18Z</time>
      </trkpt>
      <trkpt lat="46.61164" lon="5.88285">
        <ele>732.9</ele>
        <time>2019-06-01T13:01:24Z</time>
      </trkpt>
      <trkpt lat="46.61165" lon="5.88299">
        <ele>733.2</ele>
        <time>2019-06-01T13:01:35Z</time>
      </trkpt>
      <trkpt lat="46.61164" lon="5.88313">
        <ele>733.5</ele>
        <time>2019-06-01T13:01:46Z</time>
      </trkpt>
      <trkpt lat="46.6116" lon="5.88325">
        <ele>733.8</ele>
        <time>2019-06-01T13:01:58Z</time>
      </trkpt>
      <trkpt lat="46.61166" lon="5.88335">
        <ele>734.1</ele>
        <time>2019-06-01T13:02:09Z</time>
      </trkpt>
      <trkpt lat="46.61175" lon="5.88341">
        <ele>734.3</ele>
        <time>2019-06-01T13:02:21Z</time>
      </trkpt>
      <trkpt lat="46.61184" lon="5.88345">
        <ele>734.7</ele>
        <time>2019-06-01T13:02:40Z</time>
      </trkpt>
      <trkpt lat="46.61188" lon="5.88357">
        <ele>735.3</ele>
        <time>2019-06-01T13:03:01Z</time>
      </trkpt>
      <trkpt lat="46.61198" lon="5.88355">
        <ele>736.3</ele>
        <time>2019-06-01T13:03:54Z</time>
      </trkpt>
      <trkpt lat="46.61207" lon="5.88361">
        <ele>736.5</ele>
        <time>2019-06-01T13:04:03Z</time>
      </trkpt>
      <trkpt lat="46.61213" lon="5.8837">
        <ele>737.1</ele>
        <time>2019-06-01T13:05:44Z</time>
      </trkpt>
      <trkpt lat="46.61223" lon="5.88371">
        <ele>737.5</ele>
        <time>2019-06-01T13:06:21Z</time>
      </trkpt>
      <trkpt lat="46.6123" lon="5.88379">
        <ele>737.6</ele>
        <time>2019-06-01T13:06:33Z</time>
      </trkpt>
      <trkpt lat="46.6124" lon="5.88378">
        <ele>737.7</ele>
        <time>2019-06-01T13:06:44Z</time>
      </trkpt>
      <trkpt lat="46.61249" lon="5.88381">
        <ele>737.8</ele>
        <time>2019-06-01T13:06:57Z</time>
      </trkpt>
      <trkpt lat="46.61259" lon="5.8838">
        <ele>737.8</ele>
        <time>2019-06-01T13:07:08Z</time>
      </trkpt>
      <trkpt lat="46.61269" lon="5.88377">
        <ele>737.8</ele>
        <time>2019-06-01T13:07:17Z</time>
      </trkpt>
      <trkpt lat="46.61277" lon="5.88369">
        <ele>737.7</ele>
        <time>2019-06-01T13:07:27Z</time>
      </trkpt>
      <trkpt lat="46.61272" lon="5.88358">
        <ele>737.8</ele>
        <time>2019-06-01T13:07:51Z</time>
      </trkpt>
      <trkpt lat="46.6128" lon="5.88366">
        <ele>738.5</ele>
        <time>2019-06-01T13:09:10Z</time>
      </trkpt>
      <trkpt lat="46.61289" lon="5.88366">
        <ele>738.8</ele>
        <time>2019-06-01T13:09:27Z</time>
      </trkpt>
      <trkpt lat="46.61298" lon="5.88364">
        <ele>738.9</ele>
        <time>2019-06-01T13:09:37Z</time>
      </trkpt>
      <trkpt lat="46.61308" lon="5.88361">
        <ele>739.1</ele>
        <time>2019-06-01T13:09:48Z</time>
      </trkpt>
      <trkpt lat="46.61317" lon="5.88357">
        <ele>739.2</ele>
        <time>2019-06-01T13:09:57Z</time>
      </trkpt>
      <trkpt lat="46.61327" lon="5.88354">
        <ele>739.4</ele>
        <time>2019-06-01T13:10:09Z</time>
      </trkpt>
      <trkpt lat="46.61336" lon="5.88349">
        <ele>739.6</ele>
        <time>2019-06-01T13:10:20Z</time>
      </trkpt>
      <trkpt lat="46.61341" lon="5.88337">
        <ele>739.9</ele>
        <time>2019-06-01T13:10:34Z</time>
      </trkpt>
      <trkpt lat="46.6135" lon="5.88332">
        <ele>740.2</ele>
        <time>2019-06-01T13:10:43Z</time>
      </trkpt>
      <trkpt lat="46.61358" lon="5.88324">
        <ele>740.5</ele>
        <time>2019-06-01T13:10:53Z</time>
      </trkpt>
      <trkpt lat="46.61367" lon="5.88321">
        <ele>740.8</ele>
        <time>2019-06-01T13:11:03Z</time>
      </trkpt>
      <trkpt lat="46.61375" lon="5.88313">
        <ele>741.1</ele>
        <time>2019-06-01T13:11:12Z</time>
      </trkpt>
      <trkpt lat="46.61381" lon="5.88303">
        <ele>741.5</ele>
        <time>2019-06-01T13:11:22Z</time>
      </trkpt>
      <trkpt lat="46.61387" lon="5.88293">
        <ele>742</ele>
        <time>2019-06-01T13:11:32Z</time>
      </trkpt>
      <trkpt lat="46.61395" lon="5.88285">
        <ele>742.5</ele>
        <time>2019-06-01T13:11:44Z</time>
      </trkpt>
      <trkpt lat="46.61404" lon="5.88283">
        <ele>742.9</ele>
        <time>2019-06-01T13:11:51Z</time>
      </trkpt>
      <trkpt lat="46.61414" lon="5.88286">
        <ele>743.3</ele>
        <time>2019-06-01T13:12:07Z</time>
      </trkpt>
      <trkpt lat="46.61422" lon="5.88279">
        <ele>744.4</ele>
        <time>2019-06-01T13:12:47Z</time>
      </trkpt>
      <trkpt lat="46.61432" lon="5.88278">
        <ele>745</ele>
        <time>2019-06-01T13:12:58Z</time>
      </trkpt>
      <trkpt lat="46.61442" lon="5.88275">
        <ele>745.5</ele>
        <time>2019-06-01T13:13:10Z</time>
      </trkpt>
      <trkpt lat="46.6145" lon="5.88269">
        <ele>746</ele>
        <time>2019-06-01T13:13:22Z</time>
      </trkpt>
      <trkpt lat="46.61458" lon="5.88261">
        <ele>746.5</ele>
        <time>2019-06-01T13:14:08Z</time>
      </trkpt>
      <trkpt lat="46.61467" lon="5.88259">
        <ele>746.6</ele>
        <time>2019-06-01T13:14:16Z</time>
      </trkpt>
      <trkpt lat="46.61476" lon="5.88255">
        <ele>746.8</ele>
        <time>2019-06-01T13:14:25Z</time>
      </trkpt>
      <trkpt lat="46.61484" lon="5.88248">
        <ele>747.1</ele>
        <time>2019-06-01T13:14:37Z</time>
      </trkpt>
      <trkpt lat="46.61492" lon="5.88242">
        <ele>747.3</ele>
        <time>2019-06-01T13:14:46Z</time>
      </trkpt>
      <trkpt lat="46.615" lon="5.88237">
        <ele>747.5</ele>
        <time>2019-06-01T13:14:55Z</time>
      </trkpt>
      <trkpt lat="46.61509" lon="5.88231">
        <ele>747.8</ele>
        <time>2019-06-01T13:15:08Z</time>
      </trkpt>
      <trkpt lat="46.61517" lon="5.88224">
        <ele>748.1</ele>
        <time>2019-06-01T13:15:19Z</time>
      </trkpt>
      <trkpt lat="46.61527" lon="5.88222">
        <ele>748.4</ele>
        <time>2019-06-01T13:15:29Z</time>
      </trkpt>
      <trkpt lat="46.61536" lon="5.88218">
        <ele>748.6</ele>
        <time>2019-06-01T13:15:37Z</time>
      </trkpt>
      <trkpt lat="46.61542" lon="5.88207">
        <ele>749</ele>
        <time>2019-06-01T13:15:49Z</time>
      </trkpt>
      <trkpt lat="46.61551" lon="5.88203">
        <ele>749.3</ele>
        <time>2019-06-01T13:15:58Z</time>
      </trkpt>
      <trkpt lat="46.6156" lon="5.882">
        <ele>749.6</ele>
        <time>2019-06-01T13:16:12Z</time>
      </trkpt>
      <trkpt lat="46.61569" lon="5.88197">
        <ele>749.9</ele>
        <time>2019-06-01T13:16:21Z</time>
      </trkpt>
      <trkpt lat="46.61579" lon="5.88196">
        <ele>750.2</ele>
        <time>2019-06-01T13:16:32Z</time>
      </trkpt>
      <trkpt lat="46.61587" lon="5.88189">
        <ele>750.5</ele>
        <time>2019-06-01T13:16:45Z</time>
      </trkpt>
      <trkpt lat="46.61596" lon="5.88186">
        <ele>750.8</ele>
        <time>2019-06-01T13:17:06Z</time>
      </trkpt>
      <trkpt lat="46.61605" lon="5.88182">
        <ele>751.1</ele>
        <time>2019-06-01T13:17:18Z</time>
      </trkpt>
      <trkpt lat="46.61614" lon="5.88179">
        <ele>751.3</ele>
        <time>2019-06-01T13:17:27Z</time>
      </trkpt>
      <trkpt lat="46.61624" lon="5.8818">
        <ele>751.6</ele>
        <time>2019-06-01T13:17:38Z</time>
      </trkpt>
      <trkpt lat="46.61633" lon="5.88183">
        <ele>751.8</ele>
        <time>2019-06-01T13:17:46Z</time>
      </trkpt>
      <trkpt lat="46.61642" lon="5.8818">
        <ele>752.1</ele>
        <time>2019-06-01T13:17:57Z</time>
      </trkpt>
      <trkpt lat="46.61651" lon="5.88182">
        <ele>752.3</ele>
        <time>2019-06-01T13:18:05Z</time>
      </trkpt>
      <trkpt lat="46.61661" lon="5.8818">
        <ele>752.6</ele>
        <time>2019-06-01T13:18:14Z</time>
      </trkpt>
      <trkpt lat="46.6167" lon="5.88182">
        <ele>752.9</ele>
        <time>2019-06-01T13:18:21Z</time>
      </trkpt>
      <trkpt lat="46.61679" lon="5.88186">
        <ele>753.2</ele>
        <time>2019-06-01T13:18:31Z</time>
      </trkpt>
      <trkpt lat="46.61688" lon="5.88189">
        <ele>753.6</ele>
        <time>2019-06-01T13:18:43Z</time>
      </trkpt>
      <trkpt lat="46.61697" lon="5.8819">
        <ele>753.9</ele>
        <time>2019-06-01T13:18:50Z</time>
      </trkpt>
      <trkpt lat="46.61707" lon="5.88192">
        <ele>754.2</ele>
        <time>2019-06-01T13:18:58Z</time>
      </trkpt>
      <trkpt lat="46.61716" lon="5.88196">
        <ele>754.4</ele>
        <time>2019-06-01T13:19:06Z</time>
      </trkpt>
      <trkpt lat="46.61725" lon="5.88194">
        <ele>754.8</ele>
        <time>2019-06-01T13:19:19Z</time>
      </trkpt>
      <trkpt lat="46.61735" lon="5.88196">
        <ele>755.1</ele>
        <time>2019-06-01T13:19:30Z</time>
      </trkpt>
      <trkpt lat="46.61744" lon="5.88195">
        <ele>755.5</ele>
        <time>2019-06-01T13:19:42Z</time>
      </trkpt>
      <trkpt lat="46.61754" lon="5.88195">
        <ele>755.8</ele>
        <time>2019-06-01T13:19:52Z</time>
      </trkpt>
      <trkpt lat="46.61755" lon="5.88187">
        <ele>756.1</ele>
        <time>2019-06-01T13:20:16Z</time>
      </trkpt>
    </trkseg>
  </trk>
</gpx>